PWSweather.com
Personal Weather Stations
Station Observations
DL5ARK
SonnebergDE

SonnebergDE

Lat: 50.34904861, Lon: 11.18112087

Elevation: 1214

Station Type: Selfmade

http://www.sumbarg.de

High Low Average
Temperature 67.1°F19.5°C 39.4°F4.1°C 51.7°F10.9°C
Dew Point 51.4°F10.8°C 39.8°F4.3°C 46.2°F7.9°C
Winds 9.6 mph 15.4 kmh Calm Calm 3.0 mph SSW4.8 kmh SSW
Wind Gusts 9.6 mph15.4 kmh -- 3.0 mph4.8 kmh
Humidity 84% 42% 64%
Pressure 29.86 in1011.2 mb 29.73 in1006.8 mb -
Precipitation 0.00 in0.0 mm - -
Hour Temp Dew Point Humidity Winds Wind Gusts Pressure Precip Precip Rate Daily Precip Total
12:01 AM 45.6°F7.6°C 40.9°F4.9°C 65% 5.3 mph SE8.5 kmh SE 5.3 mph8.5 kmh 29.77 in1008.1 mb 0.00 in0.0 mm 0.00 in0.0 mm 0.00 in0.0 mm
12:02 AM 45.6°F7.6°C 40.9°F4.9°C 66% 7.3 mph SE11.7 kmh SE 7.8 mph12.6 kmh 29.77 in1008.1 mb 0.00 in0.0 mm 0.00 in0.0 mm 0.00 in0.0 mm
12:04 AM 45.6°F7.6°C 40.8°F4.9°C 65% 4.9 mph SSE7.9 kmh SSE 4.9 mph7.9 kmh 29.77 in1008.1 mb 0.00 in0.0 mm 0.00 in0.0 mm 0.00 in0.0 mm
12:05 AM 45.6°F7.6°C 40.8°F4.9°C 65% 6.3 mph SE10.1 kmh SE 6.3 mph10.1 kmh 29.77 in1008.1 mb 0.00 in0.0 mm 0.00 in0.0 mm 0.00 in0.0 mm
12:07 AM 45.6°F7.6°C 41.1°F5.1°C 66% 5.6 mph NNW9.0 kmh NNW 5.6 mph9.0 kmh 29.77 in1008.1 mb 0.00 in0.0 mm 0.00 in0.0 mm 0.00 in0.0 mm
12:10 AM 45.5°F7.5°C 41.2°F5.1°C 66% 6.8 mph SE10.9 kmh SE 6.8 mph10.9 kmh 29.77 in1008.1 mb 0.00 in0.0 mm 0.00 in0.0 mm 0.00 in0.0 mm
12:13 AM 45.3°F7.4°C 40.9°F4.9°C 66% 8.3 mph SSE13.4 kmh SSE 8.4 mph13.5 kmh 29.77 in1008.1 mb 0.00 in0.0 mm 0.00 in0.0 mm 0.00 in0.0 mm
12:14 AM 45.4°F7.4°C 41.0°F5.0°C 66% 6.5 mph ESE10.5 kmh ESE 6.6 mph10.6 kmh 29.77 in1008.1 mb 0.00 in0.0 mm 0.00 in0.0 mm 0.00 in0.0 mm
12:16 AM 45.5°F7.5°C 40.8°F4.9°C 66% 5.1 mph ESE8.2 kmh ESE 5.1 mph8.2 kmh 29.77 in1008.1 mb 0.00 in0.0 mm 0.00 in0.0 mm 0.00 in0.0 mm
12:19 AM 45.6°F7.6°C 40.7°F4.8°C 66% 5.6 mph SE9.0 kmh SE 5.6 mph9.0 kmh 29.77 in1008.1 mb 0.00 in0.0 mm 0.00 in0.0 mm 0.00 in0.0 mm
12:20 AM 45.6°F7.6°C 40.7°F4.8°C 66% 7.2 mph SE11.6 kmh SE 7.3 mph11.7 kmh 29.77 in1008.1 mb 0.00 in0.0 mm 0.00 in0.0 mm 0.00 in0.0 mm
12:22 AM 45.4°F7.4°C 40.7°F4.8°C 65% 3.6 mph SE5.8 kmh SE 3.6 mph5.8 kmh 29.77 in1008.1 mb 0.00 in0.0 mm 0.00 in0.0 mm 0.00 in0.0 mm
12:23 AM 45.4°F7.4°C 40.8°F4.9°C 65% 4.7 mph ESE7.6 kmh ESE 4.7 mph7.6 kmh 29.77 in1008.1 mb 0.00 in0.0 mm 0.00 in0.0 mm 0.00 in0.0 mm
12:25 AM 44.7°F7.1°C 41.3°F5.2°C 66% 2.8 mph E4.5 kmh E 2.9 mph4.7 kmh 29.77 in1008.1 mb 0.00 in0.0 mm 0.00 in0.0 mm 0.00 in0.0 mm
12:26 AM 44.7°F7.1°C 41.2°F5.1°C 66% 3.2 mph SE5.1 kmh SE 3.2 mph5.1 kmh 29.77 in1008.1 mb 0.00 in0.0 mm 0.00 in0.0 mm 0.00 in0.0 mm
12:28 AM 44.6°F7.0°C 40.9°F4.9°C 66% 6.0 mph SE9.7 kmh SE 6.0 mph9.7 kmh 29.77 in1008.1 mb 0.00 in0.0 mm 0.00 in0.0 mm 0.00 in0.0 mm
12:29 AM 44.6°F7.0°C 40.9°F4.9°C 65% 5.8 mph SE9.3 kmh SE 5.9 mph9.5 kmh 29.77 in1008.1 mb 0.00 in0.0 mm 0.00 in0.0 mm 0.00 in0.0 mm
12:31 AM 44.6°F7.0°C 41.0°F5.0°C 66% 6.1 mph SE9.8 kmh SE 6.1 mph9.8 kmh 29.77 in1008.1 mb 0.00 in0.0 mm 0.00 in0.0 mm 0.00 in0.0 mm
12:32 AM 44.6°F7.0°C 40.8°F4.9°C 66% 7.3 mph SE11.7 kmh SE 7.3 mph11.7 kmh 29.77 in1008.1 mb 0.00 in0.0 mm 0.00 in0.0 mm 0.00 in0.0 mm
12:34 AM 44.4°F6.9°C 41.0°F5.0°C 67% 2.8 mph SSE4.5 kmh SSE 2.8 mph4.5 kmh 29.77 in1008.1 mb 0.00 in0.0 mm 0.00 in0.0 mm 0.00 in0.0 mm
12:35 AM 44.4°F6.9°C 41.0°F5.0°C 67% 4.7 mph SSE7.6 kmh SSE 4.7 mph7.6 kmh 29.77 in1008.1 mb 0.00 in0.0 mm 0.00 in0.0 mm 0.00 in0.0 mm
12:37 AM 45.1°F7.3°C 40.4°F4.7°C 66% 6.9 mph SE11.1 kmh SE 6.9 mph11.1 kmh 29.77 in1008.1 mb 0.00 in0.0 mm 0.00 in0.0 mm 0.00 in0.0 mm
12:38 AM 45.1°F7.3°C 40.6°F4.8°C 66% 6.0 mph ESE9.7 kmh ESE 6.2 mph10.0 kmh 29.77 in1008.1 mb 0.00 in0.0 mm 0.00 in0.0 mm 0.00 in0.0 mm
12:40 AM 45.1°F7.3°C 40.3°F4.6°C 66% 5.3 mph NNW8.5 kmh NNW 5.3 mph8.5 kmh 29.77 in1008.1 mb 0.00 in0.0 mm 0.00 in0.0 mm 0.00 in0.0 mm
12:43 AM 44.4°F6.9°C 40.8°F4.9°C 66% 5.7 mph SE9.2 kmh SE 5.7 mph9.2 kmh 29.77 in1008.1 mb 0.00 in0.0 mm 0.00 in0.0 mm 0.00 in0.0 mm
12:44 AM 44.4°F6.9°C 40.8°F4.9°C 67% 6.1 mph SSE9.8 kmh SSE 6.3 mph10.1 kmh 29.77 in1008.1 mb 0.00 in0.0 mm 0.00 in0.0 mm 0.00 in0.0 mm
12:46 AM 44.6°F7.0°C 40.7°F4.8°C 66% 3.2 mph NNW5.1 kmh NNW 3.3 mph5.3 kmh 29.76 in1007.8 mb 0.00 in0.0 mm 0.00 in0.0 mm 0.00 in0.0 mm
12:47 AM 44.6°F7.0°C 40.8°F4.9°C 67% 3.9 mph E6.3 kmh E 3.9 mph6.3 kmh 29.76 in1007.8 mb 0.00 in0.0 mm 0.00 in0.0 mm 0.00 in0.0 mm
12:49 AM 44.4°F6.9°C 40.9°F4.9°C 67% 6.1 mph SE9.8 kmh SE 6.1 mph9.8 kmh 29.76 in1007.8 mb 0.00 in0.0 mm 0.00 in0.0 mm 0.00 in0.0 mm
12:50 AM 44.4°F6.9°C 40.9°F4.9°C 67% 6.7 mph SE10.8 kmh SE 6.8 mph10.9 kmh 29.76 in1007.8 mb 0.00 in0.0 mm 0.00 in0.0 mm 0.00 in0.0 mm
12:52 AM 44.5°F6.9°C 40.8°F4.9°C 67% 6.4 mph NNW10.3 kmh NNW 6.4 mph10.3 kmh 29.76 in1007.8 mb 0.00 in0.0 mm 0.00 in0.0 mm 0.00 in0.0 mm
12:53 AM 44.5°F6.9°C 40.9°F4.9°C 67% 5.9 mph SSE9.5 kmh SSE 6.1 mph9.8 kmh 29.76 in1007.8 mb 0.00 in0.0 mm 0.00 in0.0 mm 0.00 in0.0 mm
12:55 AM 45.1°F7.3°C 40.5°F4.7°C 66% 5.7 mph S9.2 kmh S 5.7 mph9.2 kmh 29.77 in1008.1 mb 0.00 in0.0 mm 0.00 in0.0 mm 0.00 in0.0 mm
12:56 AM 45.1°F7.3°C 40.3°F4.6°C 66% 5.3 mph SE8.5 kmh SE 5.4 mph8.7 kmh 29.76 in1007.8 mb 0.00 in0.0 mm 0.00 in0.0 mm 0.00 in0.0 mm
12:58 AM 44.6°F7.0°C 40.7°F4.8°C 66% 5.2 mph SE8.4 kmh SE 5.3 mph8.5 kmh 29.77 in1008.1 mb 0.00 in0.0 mm 0.00 in0.0 mm 0.00 in0.0 mm
12:59 AM 44.5°F6.9°C 40.8°F4.9°C 67% 6.1 mph SE9.8 kmh SE 6.1 mph9.8 kmh 29.76 in1007.8 mb 0.00 in0.0 mm 0.00 in0.0 mm 0.00 in0.0 mm
01:01 AM 44.5°F6.9°C 40.7°F4.8°C 67% 7.7 mph SE12.4 kmh SE 7.7 mph12.4 kmh 29.76 in1007.8 mb 0.00 in0.0 mm 0.00 in0.0 mm 0.00 in0.0 mm
01:02 AM 44.5°F6.9°C 40.5°F4.7°C 66% 6.0 mph SE9.7 kmh SE 6.0 mph9.7 kmh 29.76 in1007.8 mb 0.00 in0.0 mm 0.00 in0.0 mm 0.00 in0.0 mm
01:04 AM 44.6°F7.0°C 40.7°F4.8°C 67% 4.8 mph NNW7.7 kmh NNW 4.9 mph7.9 kmh 29.76 in1007.8 mb 0.00 in0.0 mm 0.00 in0.0 mm 0.00 in0.0 mm
01:05 AM 44.5°F6.9°C 40.7°F4.8°C 67% 6.2 mph SE10.0 kmh SE 6.2 mph10.0 kmh 29.76 in1007.8 mb 0.00 in0.0 mm 0.00 in0.0 mm 0.00 in0.0 mm
01:07 AM 44.3°F6.8°C 40.8°F4.9°C 67% 4.8 mph SE7.7 kmh SE 4.9 mph7.9 kmh 29.76 in1007.8 mb 0.00 in0.0 mm 0.00 in0.0 mm 0.00 in0.0 mm
01:08 AM 44.3°F6.8°C 40.7°F4.8°C 67% 4.4 mph SE7.1 kmh SE 4.4 mph7.1 kmh 29.76 in1007.8 mb 0.00 in0.0 mm 0.00 in0.0 mm 0.00 in0.0 mm
01:10 AM 44.6°F7.0°C 40.5°F4.7°C 67% 4.4 mph NNW7.1 kmh NNW 4.4 mph7.1 kmh 29.76 in1007.8 mb 0.00 in0.0 mm 0.00 in0.0 mm 0.00 in0.0 mm
01:11 AM 44.6°F7.0°C 40.7°F4.8°C 67% 4.4 mph SE7.1 kmh SE 4.4 mph7.1 kmh 29.76 in1007.8 mb 0.00 in0.0 mm 0.00 in0.0 mm 0.00 in0.0 mm
01:13 AM 44.5°F6.9°C 40.6°F4.8°C 67% 6.5 mph SE10.5 kmh SE 6.5 mph10.5 kmh 29.76 in1007.8 mb 0.00 in0.0 mm 0.00 in0.0 mm 0.00 in0.0 mm
01:14 AM 44.5°F6.9°C 40.4°F4.7°C 67% 6.8 mph SE10.9 kmh SE 6.8 mph10.9 kmh 29.76 in1007.8 mb 0.00 in0.0 mm 0.00 in0.0 mm 0.00 in0.0 mm
01:16 AM 44.5°F6.9°C 40.6°F4.8°C 67% 3.2 mph SE5.1 kmh SE 3.2 mph5.1 kmh 29.76 in1007.8 mb 0.00 in0.0 mm 0.00 in0.0 mm 0.00 in0.0 mm
01:19 AM 44.4°F6.9°C 40.6°F4.8°C 67% 3.2 mph SE5.1 kmh SE 3.2 mph5.1 kmh 29.76 in1007.8 mb 0.00 in0.0 mm 0.00 in0.0 mm 0.00 in0.0 mm
01:22 AM 43.8°F6.6°C 40.9°F4.9°C 67% 3.6 mph E5.8 kmh E 3.6 mph5.8 kmh 29.76 in1007.8 mb 0.00 in0.0 mm 0.00 in0.0 mm 0.00 in0.0 mm
01:25 AM 43.8°F6.6°C 40.6°F4.8°C 67% 8.9 mph ESE14.3 kmh ESE 9.0 mph14.5 kmh 29.76 in1007.8 mb 0.00 in0.0 mm 0.00 in0.0 mm 0.00 in0.0 mm
01:26 AM 43.9°F6.6°C 40.4°F4.7°C 67% 6.4 mph SE10.3 kmh SE 6.6 mph10.6 kmh 29.76 in1007.8 mb 0.00 in0.0 mm 0.00 in0.0 mm 0.00 in0.0 mm
01:28 AM 44.0°F6.7°C 40.5°F4.7°C 67% 5.8 mph NNW9.3 kmh NNW 5.8 mph9.3 kmh 29.75 in1007.5 mb 0.00 in0.0 mm 0.00 in0.0 mm 0.00 in0.0 mm
01:31 AM 44.6°F7.0°C 40.4°F4.7°C 67% 5.3 mph ESE8.5 kmh ESE 5.3 mph8.5 kmh 29.75 in1007.5 mb 0.00 in0.0 mm 0.00 in0.0 mm 0.00 in0.0 mm
01:32 AM 44.6°F7.0°C 40.3°F4.6°C 67% 5.1 mph ESE8.2 kmh ESE 5.1 mph8.2 kmh 29.75 in1007.5 mb 0.00 in0.0 mm 0.00 in0.0 mm 0.00 in0.0 mm
01:34 AM 43.9°F6.6°C 40.4°F4.7°C 67% 7.7 mph NNW12.4 kmh NNW 7.7 mph12.4 kmh 29.75 in1007.5 mb 0.00 in0.0 mm 0.00 in0.0 mm 0.00 in0.0 mm
01:35 AM 44.2°F6.8°C 40.4°F4.7°C 67% 7.4 mph SE11.9 kmh SE 7.5 mph12.1 kmh 29.75 in1007.5 mb 0.00 in0.0 mm 0.00 in0.0 mm 0.00 in0.0 mm
01:37 AM 44.2°F6.8°C 40.4°F4.7°C 67% 3.2 mph NNW5.1 kmh NNW 3.2 mph5.1 kmh 29.75 in1007.5 mb 0.00 in0.0 mm 0.00 in0.0 mm 0.00 in0.0 mm
01:38 AM 44.3°F6.8°C 40.4°F4.7°C 67% 3.9 mph SSE6.3 kmh SSE 3.9 mph6.3 kmh 29.75 in1007.5 mb 0.00 in0.0 mm 0.00 in0.0 mm 0.00 in0.0 mm
01:40 AM 43.9°F6.6°C 40.5°F4.7°C 67% 4.0 mph NNW6.4 kmh NNW 4.0 mph6.4 kmh 29.75 in1007.5 mb 0.00 in0.0 mm 0.00 in0.0 mm 0.00 in0.0 mm
01:43 AM 43.9°F6.6°C 40.4°F4.7°C 67% 2.8 mph SE4.5 kmh SE 2.8 mph4.5 kmh 29.75 in1007.5 mb 0.00 in0.0 mm 0.00 in0.0 mm 0.00 in0.0 mm
01:46 AM 43.0°F6.1°C 40.6°F4.8°C 68% 3.2 mph ESE5.1 kmh ESE 3.2 mph5.1 kmh 29.75 in1007.5 mb 0.00 in0.0 mm 0.00 in0.0 mm 0.00 in0.0 mm
01:47 AM 43.1°F6.2°C 40.7°F4.8°C 68% 2.1 mph SE3.4 kmh SE 2.2 mph3.5 kmh 29.74 in1007.1 mb 0.00 in0.0 mm 0.00 in0.0 mm 0.00 in0.0 mm
01:49 AM 43.1°F6.2°C 40.4°F4.7°C 67% 4.4 mph SE7.1 kmh SE 4.5 mph7.2 kmh 29.74 in1007.1 mb 0.00 in0.0 mm 0.00 in0.0 mm 0.00 in0.0 mm
01:50 AM 43.1°F6.2°C 40.3°F4.6°C 68% 6.1 mph SE9.8 kmh SE 6.1 mph9.8 kmh 29.74 in1007.1 mb 0.00 in0.0 mm 0.00 in0.0 mm 0.00 in0.0 mm
01:52 AM 43.0°F6.1°C 40.7°F4.8°C 68% 3.8 mph SE6.1 kmh SE 3.8 mph6.1 kmh 29.74 in1007.1 mb 0.00 in0.0 mm 0.00 in0.0 mm 0.00 in0.0 mm
01:53 AM 43.0°F6.1°C 40.5°F4.7°C 68% 3.7 mph SE6.0 kmh SE 3.8 mph6.1 kmh 29.74 in1007.1 mb 0.00 in0.0 mm 0.00 in0.0 mm 0.00 in0.0 mm
01:55 AM 43.1°F6.2°C 40.3°F4.6°C 68% 1.6 mph SE2.6 kmh SE 1.6 mph2.6 kmh 29.75 in1007.5 mb 0.00 in0.0 mm 0.00 in0.0 mm 0.00 in0.0 mm
01:56 AM 43.0°F6.1°C 40.4°F4.7°C 68% 0.7 mph SE1.1 kmh SE 0.7 mph1.1 kmh 29.74 in1007.1 mb 0.00 in0.0 mm 0.00 in0.0 mm 0.00 in0.0 mm
01:58 AM 42.9°F6.1°C 40.2°F4.6°C 67% 1.6 mph SE2.6 kmh SE 1.6 mph2.6 kmh 29.75 in1007.5 mb 0.00 in0.0 mm 0.00 in0.0 mm 0.00 in0.0 mm
01:59 AM 42.8°F6.0°C 40.6°F4.8°C 68% 1.8 mph SE2.9 kmh SE 1.9 mph3.1 kmh 29.75 in1007.5 mb 0.00 in0.0 mm 0.00 in0.0 mm 0.00 in0.0 mm
02:01 AM 42.4°F5.8°C 40.3°F4.6°C 68% 4.3 mph SE6.9 kmh SE 4.4 mph7.1 kmh 29.74 in1007.1 mb 0.00 in0.0 mm 0.00 in0.0 mm 0.00 in0.0 mm
02:02 AM 42.4°F5.8°C 40.4°F4.7°C 68% 4.9 mph SE7.9 kmh SE 4.9 mph7.9 kmh 29.74 in1007.1 mb 0.00 in0.0 mm 0.00 in0.0 mm 0.00 in0.0 mm
02:04 AM 42.2°F5.7°C 40.3°F4.6°C 68% 4.4 mph ESE7.1 kmh ESE 4.4 mph7.1 kmh 29.74 in1007.1 mb 0.00 in0.0 mm 0.00 in0.0 mm 0.00 in0.0 mm
02:05 AM 42.2°F5.7°C 40.5°F4.7°C 69% 4.4 mph SE7.1 kmh SE 4.4 mph7.1 kmh 29.74 in1007.1 mb 0.00 in0.0 mm 0.00 in0.0 mm 0.00 in0.0 mm
02:07 AM 42.4°F5.8°C 40.5°F4.7°C 69% 2.8 mph SE4.5 kmh SE 2.8 mph4.5 kmh 29.74 in1007.1 mb 0.00 in0.0 mm 0.00 in0.0 mm 0.00 in0.0 mm
02:08 AM 42.4°F5.8°C 40.4°F4.7°C 69% 2.8 mph SE4.5 kmh SE 2.8 mph4.5 kmh 29.74 in1007.1 mb 0.00 in0.0 mm 0.00 in0.0 mm 0.00 in0.0 mm
02:10 AM 42.4°F5.8°C 40.5°F4.7°C 69% 2.0 mph ESE3.2 kmh ESE 2.0 mph3.2 kmh 29.74 in1007.1 mb 0.00 in0.0 mm 0.00 in0.0 mm 0.00 in0.0 mm
02:13 AM 42.0°F5.6°C 40.6°F4.8°C 69% 2.8 mph SE4.5 kmh SE 2.8 mph4.5 kmh 29.74 in1007.1 mb 0.00 in0.0 mm 0.00 in0.0 mm 0.00 in0.0 mm
02:14 AM 42.0°F5.6°C 40.6°F4.8°C 69% 3.0 mph SE4.8 kmh SE 3.0 mph4.8 kmh 29.75 in1007.5 mb 0.00 in0.0 mm 0.00 in0.0 mm 0.00 in0.0 mm
02:16 AM 41.9°F5.5°C 40.6°F4.8°C 70% 2.8 mph SE4.5 kmh SE 2.9 mph4.7 kmh 29.75 in1007.5 mb 0.00 in0.0 mm 0.00 in0.0 mm 0.00 in0.0 mm
02:19 AM 41.7°F5.4°C 40.5°F4.7°C 70% 4.4 mph SE7.1 kmh SE 4.4 mph7.1 kmh 29.74 in1007.1 mb 0.00 in0.0 mm 0.00 in0.0 mm 0.00 in0.0 mm
02:20 AM 41.8°F5.4°C 40.5°F4.7°C 70% 4.4 mph SE7.1 kmh SE 4.4 mph7.1 kmh 29.74 in1007.1 mb 0.00 in0.0 mm 0.00 in0.0 mm 0.00 in0.0 mm
02:22 AM 41.8°F5.4°C 40.5°F4.7°C 70% 1.2 mph ESE1.9 kmh ESE 1.2 mph1.9 kmh 29.74 in1007.1 mb 0.00 in0.0 mm 0.00 in0.0 mm 0.00 in0.0 mm
02:23 AM 41.9°F5.5°C 40.3°F4.6°C 70% 1.6 mph ESE2.6 kmh ESE 1.6 mph2.6 kmh 29.74 in1007.1 mb 0.00 in0.0 mm 0.00 in0.0 mm 0.00 in0.0 mm
02:25 AM 41.5°F5.3°C 40.5°F4.7°C 70% 4.4 mph ESE7.1 kmh ESE 4.5 mph7.2 kmh 29.74 in1007.1 mb 0.00 in0.0 mm 0.00 in0.0 mm 0.00 in0.0 mm
02:26 AM 41.5°F5.3°C 40.2°F4.6°C 70% 6.1 mph ESE9.8 kmh ESE 6.1 mph9.8 kmh 29.74 in1007.1 mb 0.00 in0.0 mm 0.00 in0.0 mm 0.00 in0.0 mm
02:28 AM 42.0°F5.6°C 40.6°F4.8°C 70% 4.8 mph NNW7.7 kmh NNW 4.8 mph7.7 kmh 29.74 in1007.1 mb 0.00 in0.0 mm 0.00 in0.0 mm 0.00 in0.0 mm
02:29 AM 42.0°F5.6°C 40.3°F4.6°C 70% 3.4 mph SE5.5 kmh SE 3.4 mph5.5 kmh 29.74 in1007.1 mb 0.00 in0.0 mm 0.00 in0.0 mm 0.00 in0.0 mm
02:30 AM 42.5°F5.8°C 40.4°F4.7°C 70% 3.2 mph SE5.1 kmh SE 3.3 mph5.3 kmh 29.74 in1007.1 mb 0.00 in0.0 mm 0.00 in0.0 mm 0.00 in0.0 mm
02:31 AM 42.5°F5.8°C 40.3°F4.6°C 70% 3.5 mph SE5.6 kmh SE 3.6 mph5.8 kmh 29.74 in1007.1 mb 0.00 in0.0 mm 0.00 in0.0 mm 0.00 in0.0 mm
02:33 AM 42.2°F5.7°C 40.4°F4.7°C 70% 2.4 mph ESE3.9 kmh ESE 2.4 mph3.9 kmh 29.74 in1007.1 mb 0.00 in0.0 mm 0.00 in0.0 mm 0.00 in0.0 mm
02:34 AM 42.4°F5.8°C 40.5°F4.7°C 70% 1.8 mph SE2.9 kmh SE 1.9 mph3.1 kmh 29.74 in1007.1 mb 0.00 in0.0 mm 0.00 in0.0 mm 0.00 in0.0 mm
02:37 AM 42.2°F5.7°C 40.5°F4.7°C 70% 5.6 mph E9.0 kmh E 5.7 mph9.2 kmh 29.74 in1007.1 mb 0.00 in0.0 mm 0.00 in0.0 mm 0.00 in0.0 mm
02:40 AM 42.2°F5.7°C 40.5°F4.7°C 71% 3.6 mph NNW5.8 kmh NNW 3.6 mph5.8 kmh 29.74 in1007.1 mb 0.00 in0.0 mm 0.00 in0.0 mm 0.00 in0.0 mm
02:43 AM 42.5°F5.8°C 40.5°F4.7°C 70% 2.8 mph SE4.5 kmh SE 2.8 mph4.5 kmh 29.74 in1007.1 mb 0.00 in0.0 mm 0.00 in0.0 mm 0.00 in0.0 mm
02:46 AM 42.0°F5.6°C 40.3°F4.6°C 70% 0.8 mph NNW1.3 kmh NNW 0.8 mph1.3 kmh 29.74 in1007.1 mb 0.00 in0.0 mm 0.00 in0.0 mm 0.00 in0.0 mm
02:49 AM 42.2°F5.7°C 40.5°F4.7°C 70% 2.8 mph SE4.5 kmh SE 2.8 mph4.5 kmh 29.74 in1007.1 mb 0.00 in0.0 mm 0.00 in0.0 mm 0.00 in0.0 mm
02:52 AM 42.1°F5.6°C 40.7°F4.8°C 70% 2.4 mph NNW3.9 kmh NNW 2.4 mph3.9 kmh 29.74 in1007.1 mb 0.00 in0.0 mm 0.00 in0.0 mm 0.00 in0.0 mm
02:55 AM 42.5°F5.8°C 40.2°F4.6°C 70% 4.8 mph ESE7.7 kmh ESE 4.8 mph7.7 kmh 29.74 in1007.1 mb 0.00 in0.0 mm 0.00 in0.0 mm 0.00 in0.0 mm
02:58 AM 41.8°F5.4°C 40.5°F4.7°C 70% 3.2 mph E5.1 kmh E 3.2 mph5.1 kmh 29.74 in1007.1 mb 0.00 in0.0 mm 0.00 in0.0 mm 0.00 in0.0 mm
03:01 AM 42.2°F5.7°C 40.5°F4.7°C 70% 2.8 mph SE4.5 kmh SE 2.8 mph4.5 kmh 29.74 in1007.1 mb 0.00 in0.0 mm 0.00 in0.0 mm 0.00 in0.0 mm
03:04 AM 42.6°F5.9°C 40.6°F4.8°C 71% 3.2 mph ESE5.1 kmh ESE 3.2 mph5.1 kmh 29.74 in1007.1 mb 0.00 in0.0 mm 0.00 in0.0 mm 0.00 in0.0 mm
03:07 AM 42.1°F5.6°C 40.5°F4.7°C 70% 1.2 mph SE1.9 kmh SE 1.2 mph1.9 kmh 29.74 in1007.1 mb 0.00 in0.0 mm 0.00 in0.0 mm 0.00 in0.0 mm
03:10 AM 41.9°F5.5°C 40.3°F4.6°C 70% 2.0 mph SE3.2 kmh SE 2.0 mph3.2 kmh 29.74 in1007.1 mb 0.00 in0.0 mm 0.00 in0.0 mm 0.00 in0.0 mm
03:13 AM 42.0°F5.6°C 40.4°F4.7°C 70% 4.4 mph ESE7.1 kmh ESE 4.4 mph7.1 kmh 29.74 in1007.1 mb 0.00 in0.0 mm 0.00 in0.0 mm 0.00 in0.0 mm
03:16 AM 41.8°F5.4°C 40.5°F4.7°C 70% 4.3 mph SE6.9 kmh SE 4.4 mph7.1 kmh 29.74 in1007.1 mb 0.00 in0.0 mm 0.00 in0.0 mm 0.00 in0.0 mm
03:19 AM 42.4°F5.8°C 40.2°F4.6°C 71% 3.2 mph SE5.1 kmh SE 3.3 mph5.3 kmh 29.74 in1007.1 mb 0.00 in0.0 mm 0.00 in0.0 mm 0.00 in0.0 mm
03:22 AM 42.0°F5.6°C 40.6°F4.8°C 71% 1.6 mph ESE2.6 kmh ESE 1.6 mph2.6 kmh 29.74 in1007.1 mb 0.00 in0.0 mm 0.00 in0.0 mm 0.00 in0.0 mm
03:25 AM 42.0°F5.6°C 40.4°F4.7°C 70% 3.4 mph NNW5.5 kmh NNW 3.4 mph5.5 kmh 29.74 in1007.1 mb 0.00 in0.0 mm 0.00 in0.0 mm 0.00 in0.0 mm
03:28 AM 42.1°F5.6°C 40.5°F4.7°C 70% 2.8 mph SSE4.5 kmh SSE 2.9 mph4.7 kmh 29.74 in1007.1 mb 0.00 in0.0 mm 0.00 in0.0 mm 0.00 in0.0 mm
03:31 AM 41.2°F5.1°C 40.3°F4.6°C 70% Calm Calm -- 29.74 in1007.1 mb 0.00 in0.0 mm 0.00 in0.0 mm 0.00 in0.0 mm
03:34 AM 41.8°F5.4°C 40.3°F4.6°C 70% 2.7 mph SE4.3 kmh SE 2.7 mph4.3 kmh 29.74 in1007.1 mb 0.00 in0.0 mm 0.00 in0.0 mm 0.00 in0.0 mm
03:37 AM 41.7°F5.4°C 40.3°F4.6°C 70% 2.8 mph SE4.5 kmh SE 2.8 mph4.5 kmh 29.74 in1007.1 mb 0.00 in0.0 mm 0.00 in0.0 mm 0.00 in0.0 mm
03:40 AM 41.3°F5.2°C 40.3°F4.6°C 71% 3.2 mph NNW5.1 kmh NNW 3.3 mph5.3 kmh 29.74 in1007.1 mb 0.00 in0.0 mm 0.00 in0.0 mm 0.00 in0.0 mm
03:43 AM 41.2°F5.1°C 40.2°F4.6°C 71% 1.2 mph ESE1.9 kmh ESE 1.2 mph1.9 kmh 29.74 in1007.1 mb 0.00 in0.0 mm 0.00 in0.0 mm 0.00 in0.0 mm
03:46 AM 41.3°F5.2°C 40.2°F4.6°C 71% 1.2 mph SE1.9 kmh SE 1.2 mph1.9 kmh 29.74 in1007.1 mb 0.00 in0.0 mm 0.00 in0.0 mm 0.00 in0.0 mm
03:49 AM 40.9°F4.9°C 40.4°F4.7°C 71% 1.6 mph ESE2.6 kmh ESE 1.6 mph2.6 kmh 29.74 in1007.1 mb 0.00 in0.0 mm 0.00 in0.0 mm 0.00 in0.0 mm
03:52 AM 40.6°F4.8°C 40.2°F4.6°C 71% 1.9 mph NNE3.1 kmh NNE 1.9 mph3.1 kmh 29.74 in1007.1 mb 0.00 in0.0 mm 0.00 in0.0 mm 0.00 in0.0 mm
03:55 AM 40.8°F4.9°C 39.9°F4.4°C 70% 2.8 mph SE4.5 kmh SE 2.8 mph4.5 kmh 29.74 in1007.1 mb 0.00 in0.0 mm 0.00 in0.0 mm 0.00 in0.0 mm
03:58 AM 40.7°F4.8°C 40.3°F4.6°C 71% 2.0 mph SSE3.2 kmh SSE 2.0 mph3.2 kmh 29.74 in1007.1 mb 0.00 in0.0 mm 0.00 in0.0 mm 0.00 in0.0 mm
04:01 AM 40.7°F4.8°C 40.1°F4.5°C 71% 4.1 mph SSE6.6 kmh SSE 4.1 mph6.6 kmh 29.74 in1007.1 mb 0.00 in0.0 mm 0.00 in0.0 mm 0.00 in0.0 mm
04:04 AM 40.9°F4.9°C 40.2°F4.6°C 72% 2.4 mph SSE3.9 kmh SSE 2.4 mph3.9 kmh 29.74 in1007.1 mb 0.00 in0.0 mm 0.00 in0.0 mm 0.00 in0.0 mm
04:07 AM 40.8°F4.9°C 40.0°F4.4°C 72% 2.0 mph SSE3.2 kmh SSE 2.0 mph3.2 kmh 29.74 in1007.1 mb 0.00 in0.0 mm 0.00 in0.0 mm 0.00 in0.0 mm
04:10 AM 40.3°F4.6°C 40.1°F4.5°C 72% 2.0 mph SE3.2 kmh SE 2.0 mph3.2 kmh 29.74 in1007.1 mb 0.00 in0.0 mm 0.00 in0.0 mm 0.00 in0.0 mm
04:13 AM 41.1°F5.1°C 39.9°F4.4°C 72% 2.4 mph SE3.9 kmh SE 2.4 mph3.9 kmh 29.74 in1007.1 mb 0.00 in0.0 mm 0.00 in0.0 mm 0.00 in0.0 mm
04:16 AM 40.3°F4.6°C 40.1°F4.5°C 73% 1.2 mph SE1.9 kmh SE 1.2 mph1.9 kmh 29.73 in1006.8 mb 0.00 in0.0 mm 0.00 in0.0 mm 0.00 in0.0 mm
04:19 AM 40.1°F4.5°C 40.2°F4.6°C 73% 2.4 mph SE3.9 kmh SE 2.4 mph3.9 kmh 29.73 in1006.8 mb 0.00 in0.0 mm 0.00 in0.0 mm 0.00 in0.0 mm
04:22 AM 40.3°F4.6°C 39.9°F4.4°C 73% 2.4 mph SE3.9 kmh SE 2.4 mph3.9 kmh 29.74 in1007.1 mb 0.00 in0.0 mm 0.00 in0.0 mm 0.00 in0.0 mm
04:25 AM 41.0°F5.0°C 40.2°F4.6°C 74% 4.4 mph SE7.1 kmh SE 4.5 mph7.2 kmh 29.74 in1007.1 mb 0.00 in0.0 mm 0.00 in0.0 mm 0.00 in0.0 mm
04:28 AM 41.6°F5.3°C 40.1°F4.5°C 74% 6.5 mph SE10.5 kmh SE 6.5 mph10.5 kmh 29.74 in1007.1 mb 0.00 in0.0 mm 0.00 in0.0 mm 0.00 in0.0 mm
04:31 AM 41.5°F5.3°C 40.2°F4.6°C 74% 1.2 mph SSE1.9 kmh SSE 1.2 mph1.9 kmh 29.74 in1007.1 mb 0.00 in0.0 mm 0.00 in0.0 mm 0.00 in0.0 mm
04:34 AM 41.5°F5.3°C 40.3°F4.6°C 73% 3.6 mph SSE5.8 kmh SSE 3.7 mph6.0 kmh 29.74 in1007.1 mb 0.00 in0.0 mm 0.00 in0.0 mm 0.00 in0.0 mm
04:37 AM 41.2°F5.1°C 40.4°F4.7°C 73% 2.8 mph SSE4.5 kmh SSE 2.8 mph4.5 kmh 29.74 in1007.1 mb 0.00 in0.0 mm 0.00 in0.0 mm 0.00 in0.0 mm
04:40 AM 40.7°F4.8°C 40.2°F4.6°C 73% 1.6 mph SE2.6 kmh SE 1.6 mph2.6 kmh 29.74 in1007.1 mb 0.00 in0.0 mm 0.00 in0.0 mm 0.00 in0.0 mm
04:43 AM 40.2°F4.6°C 40.0°F4.4°C 73% 2.4 mph NNW3.9 kmh NNW 2.4 mph3.9 kmh 29.74 in1007.1 mb 0.00 in0.0 mm 0.00 in0.0 mm 0.00 in0.0 mm
04:46 AM 39.9°F4.4°C 40.0°F4.4°C 73% 0.4 mph SE0.6 kmh SE 0.4 mph0.6 kmh 29.74 in1007.1 mb 0.00 in0.0 mm 0.00 in0.0 mm 0.00 in0.0 mm
04:49 AM 39.7°F4.3°C 40.2°F4.6°C 74% 2.4 mph SE3.9 kmh SE 2.4 mph3.9 kmh 29.74 in1007.1 mb 0.00 in0.0 mm 0.00 in0.0 mm 0.00 in0.0 mm
04:52 AM 39.4°F4.1°C 40.2°F4.6°C 74% 3.2 mph SE5.1 kmh SE 3.3 mph5.3 kmh 29.74 in1007.1 mb 0.00 in0.0 mm 0.00 in0.0 mm 0.00 in0.0 mm
04:55 AM 39.9°F4.4°C 40.0°F4.4°C 75% 3.2 mph NNW5.1 kmh NNW 3.2 mph5.1 kmh 29.74 in1007.1 mb 0.00 in0.0 mm 0.00 in0.0 mm 0.00 in0.0 mm
04:58 AM 39.8°F4.3°C 40.0°F4.4°C 75% 3.2 mph SE5.1 kmh SE 3.3 mph5.3 kmh 29.74 in1007.1 mb 0.00 in0.0 mm 0.00 in0.0 mm 0.00 in0.0 mm
05:01 AM 40.3°F4.6°C 40.1°F4.5°C 75% 4.0 mph SE6.4 kmh SE 4.1 mph6.6 kmh 29.74 in1007.1 mb 0.00 in0.0 mm 0.00 in0.0 mm 0.00 in0.0 mm
05:04 AM 40.4°F4.7°C 40.3°F4.6°C 76% 3.2 mph NNW5.1 kmh NNW 3.3 mph5.3 kmh 29.74 in1007.1 mb 0.00 in0.0 mm 0.00 in0.0 mm 0.00 in0.0 mm
05:07 AM 40.0°F4.4°C 40.3°F4.6°C 75% 0.8 mph SE1.3 kmh SE 0.8 mph1.3 kmh 29.74 in1007.1 mb 0.00 in0.0 mm 0.00 in0.0 mm 0.00 in0.0 mm
05:10 AM 39.9°F4.4°C 40.1°F4.5°C 75% 1.2 mph NNW1.9 kmh NNW 1.2 mph1.9 kmh 29.74 in1007.1 mb 0.00 in0.0 mm 0.00 in0.0 mm 0.00 in0.0 mm
05:13 AM 39.9°F4.4°C 40.2°F4.6°C 75% 1.6 mph SE2.6 kmh SE 1.6 mph2.6 kmh 29.74 in1007.1 mb 0.00 in0.0 mm 0.00 in0.0 mm 0.00 in0.0 mm
05:16 AM 39.9°F4.4°C 40.0°F4.4°C 75% Calm Calm -- 29.74 in1007.1 mb 0.00 in0.0 mm 0.00 in0.0 mm 0.00 in0.0 mm
05:19 AM 39.9°F4.4°C 39.8°F4.3°C 74% 0.8 mph NNW1.3 kmh NNW 0.8 mph1.3 kmh 29.74 in1007.1 mb 0.00 in0.0 mm 0.00 in0.0 mm 0.00 in0.0 mm
05:22 AM 40.2°F4.6°C 40.2°F4.6°C 75% 1.2 mph ESE1.9 kmh ESE 1.2 mph1.9 kmh 29.74 in1007.1 mb 0.00 in0.0 mm 0.00 in0.0 mm 0.00 in0.0 mm
05:25 AM 40.6°F4.8°C 40.1°F4.5°C 75% 2.8 mph SE4.5 kmh SE 2.8 mph4.5 kmh 29.74 in1007.1 mb 0.00 in0.0 mm 0.00 in0.0 mm 0.00 in0.0 mm
05:28 AM 41.1°F5.1°C 40.2°F4.6°C 75% 1.6 mph SE2.6 kmh SE 1.6 mph2.6 kmh 29.74 in1007.1 mb 0.00 in0.0 mm 0.00 in0.0 mm 0.00 in0.0 mm
05:31 AM 41.3°F5.2°C 40.5°F4.7°C 75% 3.2 mph ESE5.1 kmh ESE 3.3 mph5.3 kmh 29.74 in1007.1 mb 0.00 in0.0 mm 0.00 in0.0 mm 0.00 in0.0 mm
05:34 AM 42.0°F5.6°C 40.7°F4.8°C 75% 4.7 mph SE7.6 kmh SE 4.8 mph7.7 kmh 29.74 in1007.1 mb 0.00 in0.0 mm 0.00 in0.0 mm 0.00 in0.0 mm
05:37 AM 42.4°F5.8°C 40.6°F4.8°C 75% 2.4 mph NNW3.9 kmh NNW 2.4 mph3.9 kmh 29.74 in1007.1 mb 0.00 in0.0 mm 0.00 in0.0 mm 0.00 in0.0 mm
05:40 AM 42.6°F5.9°C 40.7°F4.8°C 75% 4.8 mph E7.7 kmh E 4.8 mph7.7 kmh 29.74 in1007.1 mb 0.00 in0.0 mm 0.00 in0.0 mm 0.00 in0.0 mm
05:43 AM 42.5°F5.8°C 40.8°F4.9°C 75% 1.9 mph NNW3.1 kmh NNW 2.0 mph3.2 kmh 29.74 in1007.1 mb 0.00 in0.0 mm 0.00 in0.0 mm 0.00 in0.0 mm
05:46 AM 42.4°F5.8°C 41.0°F5.0°C 75% 3.6 mph SE5.8 kmh SE 3.7 mph6.0 kmh 29.74 in1007.1 mb 0.00 in0.0 mm 0.00 in0.0 mm 0.00 in0.0 mm
05:49 AM 42.9°F6.1°C 41.1°F5.1°C 75% 1.2 mph SE1.9 kmh SE 1.2 mph1.9 kmh 29.75 in1007.5 mb 0.00 in0.0 mm 0.00 in0.0 mm 0.00 in0.0 mm
05:52 AM 42.8°F6.0°C 41.3°F5.2°C 75% 2.0 mph SE3.2 kmh SE 2.0 mph3.2 kmh 29.75 in1007.5 mb 0.00 in0.0 mm 0.00 in0.0 mm 0.00 in0.0 mm
05:55 AM 43.4°F6.3°C 41.5°F5.3°C 76% 4.0 mph SE6.4 kmh SE 4.1 mph6.6 kmh 29.74 in1007.1 mb 0.00 in0.0 mm 0.00 in0.0 mm 0.00 in0.0 mm
05:58 AM 43.9°F6.6°C 41.6°F5.3°C 75% 4.4 mph SE7.1 kmh SE 4.5 mph7.2 kmh 29.74 in1007.1 mb 0.00 in0.0 mm 0.00 in0.0 mm 0.00 in0.0 mm
06:01 AM 44.6°F7.0°C 41.5°F5.3°C 75% 2.8 mph ESE4.5 kmh ESE 2.9 mph4.7 kmh 29.74 in1007.1 mb 0.00 in0.0 mm 0.00 in0.0 mm 0.00 in0.0 mm
06:04 AM 45.2°F7.3°C 41.9°F5.5°C 75% 3.2 mph NNW5.1 kmh NNW 3.2 mph5.1 kmh 29.74 in1007.1 mb 0.00 in0.0 mm 0.00 in0.0 mm 0.00 in0.0 mm
06:07 AM 45.5°F7.5°C 41.5°F5.3°C 73% 3.2 mph NNW5.1 kmh NNW 3.2 mph5.1 kmh 29.74 in1007.1 mb 0.00 in0.0 mm 0.00 in0.0 mm 0.00 in0.0 mm
06:10 AM 45.6°F7.6°C 41.9°F5.5°C 74% 3.6 mph SE5.8 kmh SE 3.6 mph5.8 kmh 29.74 in1007.1 mb 0.00 in0.0 mm 0.00 in0.0 mm 0.00 in0.0 mm
06:13 AM 45.7°F7.6°C 41.4°F5.2°C 72% 3.2 mph E5.1 kmh E 3.3 mph5.3 kmh 29.74 in1007.1 mb 0.00 in0.0 mm 0.00 in0.0 mm 0.00 in0.0 mm
06:16 AM 46.0°F7.8°C 41.6°F5.3°C 72% 5.4 mph E8.7 kmh E 5.5 mph8.9 kmh 29.74 in1007.1 mb 0.00 in0.0 mm 0.00 in0.0 mm 0.00 in0.0 mm
06:19 AM 46.0°F7.8°C 41.6°F5.3°C 72% 3.2 mph SE5.1 kmh SE 3.2 mph5.1 kmh 29.74 in1007.1 mb 0.00 in0.0 mm 0.00 in0.0 mm 0.00 in0.0 mm
06:22 AM 46.3°F7.9°C 41.9°F5.5°C 72% 3.6 mph SE5.8 kmh SE 3.6 mph5.8 kmh 29.74 in1007.1 mb 0.00 in0.0 mm 0.00 in0.0 mm 0.00 in0.0 mm
06:25 AM 46.5°F8.1°C 42.3°F5.7°C 72% 3.2 mph SSE5.1 kmh SSE 3.2 mph5.1 kmh 29.74 in1007.1 mb 0.00 in0.0 mm 0.00 in0.0 mm 0.00 in0.0 mm
06:28 AM 46.5°F8.1°C 42.2°F5.7°C 72% 4.0 mph SE6.4 kmh SE 4.1 mph6.6 kmh 29.74 in1007.1 mb 0.00 in0.0 mm 0.00 in0.0 mm 0.00 in0.0 mm
06:31 AM 46.6°F8.1°C 42.5°F5.8°C 72% 0.8 mph NNW1.3 kmh NNW 0.8 mph1.3 kmh 29.74 in1007.1 mb 0.00 in0.0 mm 0.00 in0.0 mm 0.00 in0.0 mm
06:34 AM 46.7°F8.2°C 42.3°F5.7°C 72% 4.9 mph NNW7.9 kmh NNW 4.9 mph7.9 kmh 29.74 in1007.1 mb 0.00 in0.0 mm 0.00 in0.0 mm 0.00 in0.0 mm
06:37 AM 47.5°F8.6°C 42.8°F6.0°C 73% 3.6 mph ESE5.8 kmh ESE 3.7 mph6.0 kmh 29.74 in1007.1 mb 0.00 in0.0 mm 0.00 in0.0 mm 0.00 in0.0 mm
06:40 AM 47.8°F8.8°C 42.6°F5.9°C 72% 4.8 mph ESE7.7 kmh ESE 4.9 mph7.9 kmh 29.74 in1007.1 mb 0.00 in0.0 mm 0.00 in0.0 mm 0.00 in0.0 mm
06:43 AM 48.1°F8.9°C 42.5°F5.8°C 71% 4.9 mph SE7.9 kmh SE 4.9 mph7.9 kmh 29.74 in1007.1 mb 0.00 in0.0 mm 0.00 in0.0 mm 0.00 in0.0 mm
06:46 AM 48.2°F9.0°C 43.1°F6.2°C 71% 4.0 mph SE6.4 kmh SE 4.0 mph6.4 kmh 29.74 in1007.1 mb 0.00 in0.0 mm 0.00 in0.0 mm 0.00 in0.0 mm
06:49 AM 48.1°F8.9°C 42.9°F6.1°C 71% 4.7 mph NNW7.6 kmh NNW 4.8 mph7.7 kmh 29.74 in1007.1 mb 0.00 in0.0 mm 0.00 in0.0 mm 0.00 in0.0 mm
06:52 AM 48.1°F8.9°C 42.6°F5.9°C 70% 6.7 mph SE10.8 kmh SE 6.8 mph10.9 kmh 29.74 in1007.1 mb 0.00 in0.0 mm 0.00 in0.0 mm 0.00 in0.0 mm
06:55 AM 48.4°F9.1°C 42.6°F5.9°C 71% 6.0 mph NNW9.7 kmh NNW 6.0 mph9.7 kmh 29.74 in1007.1 mb 0.00 in0.0 mm 0.00 in0.0 mm 0.00 in0.0 mm
06:58 AM 48.0°F8.9°C 42.4°F5.8°C 69% 4.5 mph SE7.2 kmh SE 4.5 mph7.2 kmh 29.74 in1007.1 mb 0.00 in0.0 mm 0.00 in0.0 mm 0.00 in0.0 mm
07:01 AM 48.3°F9.1°C 42.9°F6.1°C 70% 6.0 mph ESE9.7 kmh ESE 6.1 mph9.8 kmh 29.74 in1007.1 mb 0.00 in0.0 mm 0.00 in0.0 mm 0.00 in0.0 mm
07:04 AM 48.1°F8.9°C 42.8°F6.0°C 69% 5.2 mph NNW8.4 kmh NNW 5.3 mph8.5 kmh 29.74 in1007.1 mb 0.00 in0.0 mm 0.00 in0.0 mm 0.00 in0.0 mm
07:07 AM 48.2°F9.0°C 43.2°F6.2°C 70% 6.9 mph SSE11.1 kmh SSE 6.9 mph11.1 kmh 29.74 in1007.1 mb 0.00 in0.0 mm 0.00 in0.0 mm 0.00 in0.0 mm
07:10 AM 48.2°F9.0°C 42.8°F6.0°C 69% 5.3 mph SE8.5 kmh SE 5.3 mph8.5 kmh 29.74 in1007.1 mb 0.00 in0.0 mm 0.00 in0.0 mm 0.00 in0.0 mm
07:13 AM 48.1°F8.9°C 42.3°F5.7°C 69% 9.5 mph SE15.3 kmh SE 9.6 mph15.4 kmh 29.74 in1007.1 mb 0.00 in0.0 mm 0.00 in0.0 mm 0.00 in0.0 mm
07:16 AM 48.2°F9.0°C 42.5°F5.8°C 69% 5.6 mph SE9.0 kmh SE 5.7 mph9.2 kmh 29.74 in1007.1 mb 0.00 in0.0 mm 0.00 in0.0 mm 0.00 in0.0 mm
07:19 AM 48.2°F9.0°C 42.7°F5.9°C 69% 4.8 mph SE7.7 kmh SE 4.8 mph7.7 kmh 29.74 in1007.1 mb 0.00 in0.0 mm 0.00 in0.0 mm 0.00 in0.0 mm
07:22 AM 48.8°F9.3°C 43.6°F6.4°C 71% 2.4 mph SE3.9 kmh SE 2.4 mph3.9 kmh 29.74 in1007.1 mb 0.00 in0.0 mm 0.00 in0.0 mm 0.00 in0.0 mm
07:25 AM 48.9°F9.4°C 43.2°F6.2°C 69% 4.0 mph SE6.4 kmh SE 4.0 mph6.4 kmh 29.74 in1007.1 mb 0.00 in0.0 mm 0.00 in0.0 mm 0.00 in0.0 mm
07:28 AM 48.8°F9.3°C 43.1°F6.2°C 69% 4.0 mph SE6.4 kmh SE 4.0 mph6.4 kmh 29.74 in1007.1 mb 0.00 in0.0 mm 0.00 in0.0 mm 0.00 in0.0 mm
07:31 AM 49.1°F9.5°C 43.3°F6.3°C 69% 4.0 mph NNW6.4 kmh NNW 4.0 mph6.4 kmh 29.74 in1007.1 mb 0.00 in0.0 mm 0.00 in0.0 mm 0.00 in0.0 mm
07:34 AM 49.9°F9.9°C 43.2°F6.2°C 69% 2.8 mph E4.5 kmh E 2.8 mph4.5 kmh 29.74 in1007.1 mb 0.00 in0.0 mm 0.00 in0.0 mm 0.00 in0.0 mm
07:37 AM 50.0°F10.0°C 43.2°F6.2°C 68% 3.6 mph SE5.8 kmh SE 3.7 mph6.0 kmh 29.74 in1007.1 mb 0.00 in0.0 mm 0.00 in0.0 mm 0.00 in0.0 mm
07:40 AM 50.0°F10.0°C 43.9°F6.6°C 69% 3.6 mph NE5.8 kmh NE 3.7 mph6.0 kmh 29.74 in1007.1 mb 0.00 in0.0 mm 0.00 in0.0 mm 0.00 in0.0 mm
07:43 AM 50.3°F10.2°C 43.0°F6.1°C 67% 1.6 mph E2.6 kmh E 1.6 mph2.6 kmh 29.74 in1007.1 mb 0.00 in0.0 mm 0.00 in0.0 mm 0.00 in0.0 mm
07:46 AM 50.3°F10.2°C 43.4°F6.3°C 68% 3.2 mph SE5.1 kmh SE 3.2 mph5.1 kmh 29.74 in1007.1 mb 0.00 in0.0 mm 0.00 in0.0 mm 0.00 in0.0 mm
07:49 AM 50.8°F10.4°C 44.2°F6.8°C 69% 2.8 mph SE4.5 kmh SE 2.8 mph4.5 kmh 29.74 in1007.1 mb 0.00 in0.0 mm 0.00 in0.0 mm 0.00 in0.0 mm
07:52 AM 51.4°F10.8°C 44.4°F6.9°C 69% 2.8 mph ESE4.5 kmh ESE 2.8 mph4.5 kmh 29.74 in1007.1 mb 0.00 in0.0 mm 0.00 in0.0 mm 0.00 in0.0 mm
07:55 AM 51.7°F10.9°C 43.9°F6.6°C 67% 4.8 mph NNW7.7 kmh NNW 4.8 mph7.7 kmh 29.74 in1007.1 mb 0.00 in0.0 mm 0.00 in0.0 mm 0.00 in0.0 mm
07:58 AM 52.0°F11.1°C 44.3°F6.8°C 67% 3.6 mph ESE5.8 kmh ESE 3.6 mph5.8 kmh 29.74 in1007.1 mb 0.00 in0.0 mm 0.00 in0.0 mm 0.00 in0.0 mm
08:01 AM 51.9°F11.1°C 44.8°F7.1°C 68% 2.4 mph ESE3.9 kmh ESE 2.4 mph3.9 kmh 29.74 in1007.1 mb 0.00 in0.0 mm 0.00 in0.0 mm 0.00 in0.0 mm
08:04 AM 51.8°F11.0°C 44.4°F6.9°C 66% 2.4 mph ESE3.9 kmh ESE 2.4 mph3.9 kmh 29.74 in1007.1 mb 0.00 in0.0 mm 0.00 in0.0 mm 0.00 in0.0 mm
08:07 AM 51.6°F10.9°C 43.7°F6.5°C 65% 4.2 mph NNW6.8 kmh NNW 4.2 mph6.8 kmh 29.75 in1007.5 mb 0.00 in0.0 mm 0.00 in0.0 mm 0.00 in0.0 mm
08:10 AM 51.7°F10.9°C 44.8°F7.1°C 67% 1.6 mph SE2.6 kmh SE 1.6 mph2.6 kmh 29.75 in1007.5 mb 0.00 in0.0 mm 0.00 in0.0 mm 0.00 in0.0 mm
08:13 AM 51.8°F11.0°C 43.9°F6.6°C 65% 2.8 mph SE4.5 kmh SE 2.8 mph4.5 kmh 29.75 in1007.5 mb 0.00 in0.0 mm 0.00 in0.0 mm 0.00 in0.0 mm
08:16 AM 51.8°F11.0°C 44.5°F6.9°C 66% 3.8 mph SE6.1 kmh SE 3.8 mph6.1 kmh 29.74 in1007.1 mb 0.00 in0.0 mm 0.00 in0.0 mm 0.00 in0.0 mm
08:19 AM 51.9°F11.1°C 44.8°F7.1°C 67% 2.0 mph ESE3.2 kmh ESE 2.0 mph3.2 kmh 29.75 in1007.5 mb 0.00 in0.0 mm 0.00 in0.0 mm 0.00 in0.0 mm
08:22 AM 52.6°F11.4°C 45.2°F7.3°C 68% 3.2 mph ESE5.1 kmh ESE 3.2 mph5.1 kmh 29.75 in1007.5 mb 0.00 in0.0 mm 0.00 in0.0 mm 0.00 in0.0 mm
08:25 AM 53.3°F11.8°C 45.5°F7.5°C 68% 3.4 mph ESE5.5 kmh ESE 3.5 mph5.6 kmh 29.75 in1007.5 mb 0.00 in0.0 mm 0.00 in0.0 mm 0.00 in0.0 mm
08:28 AM 53.8°F12.1°C 45.8°F7.7°C 68% 4.0 mph ESE6.4 kmh ESE 4.1 mph6.6 kmh 29.75 in1007.5 mb 0.00 in0.0 mm 0.00 in0.0 mm 0.00 in0.0 mm
08:31 AM 54.2°F12.3°C 45.3°F7.4°C 65% 2.8 mph ESE4.5 kmh ESE 2.8 mph4.5 kmh 29.75 in1007.5 mb 0.00 in0.0 mm 0.00 in0.0 mm 0.00 in0.0 mm
08:34 AM 53.6°F12.0°C 45.8°F7.7°C 66% 4.6 mph SE7.4 kmh SE 4.6 mph7.4 kmh 29.75 in1007.5 mb 0.00 in0.0 mm 0.00 in0.0 mm 0.00 in0.0 mm
08:37 AM 53.6°F12.0°C 44.9°F7.2°C 64% 4.8 mph NNW7.7 kmh NNW 4.9 mph7.9 kmh 29.75 in1007.5 mb 0.00 in0.0 mm 0.00 in0.0 mm 0.00 in0.0 mm
08:40 AM 53.7°F12.1°C 44.5°F6.9°C 62% 5.2 mph NNW8.4 kmh NNW 5.2 mph8.4 kmh 29.75 in1007.5 mb 0.00 in0.0 mm 0.00 in0.0 mm 0.00 in0.0 mm
08:43 AM 53.7°F12.1°C 45.1°F7.3°C 64% 3.4 mph NNW5.5 kmh NNW 3.4 mph5.5 kmh 29.76 in1007.8 mb 0.00 in0.0 mm 0.00 in0.0 mm 0.00 in0.0 mm
08:46 AM 53.6°F12.0°C 44.5°F6.9°C 61% 3.2 mph E5.1 kmh E 3.3 mph5.3 kmh 29.75 in1007.5 mb 0.00 in0.0 mm 0.00 in0.0 mm 0.00 in0.0 mm
08:49 AM 54.3°F12.4°C 46.0°F7.8°C 65% 2.4 mph SE3.9 kmh SE 2.5 mph4.0 kmh 29.75 in1007.5 mb 0.00 in0.0 mm 0.00 in0.0 mm 0.00 in0.0 mm
08:52 AM 54.5°F12.5°C 46.1°F7.8°C 64% 2.3 mph ENE3.7 kmh ENE 2.3 mph3.7 kmh 29.75 in1007.5 mb 0.00 in0.0 mm 0.00 in0.0 mm 0.00 in0.0 mm
08:55 AM 55.2°F12.9°C 45.7°F7.6°C 62% 1.2 mph SE1.9 kmh SE 1.2 mph1.9 kmh 29.76 in1007.8 mb 0.00 in0.0 mm 0.00 in0.0 mm 0.00 in0.0 mm
08:58 AM 55.6°F13.1°C 45.8°F7.7°C 61% 2.4 mph E3.9 kmh E 2.4 mph3.9 kmh 29.75 in1007.5 mb 0.00 in0.0 mm 0.00 in0.0 mm 0.00 in0.0 mm
09:01 AM 55.0°F12.8°C 46.1°F7.8°C 62% 1.9 mph NNW3.1 kmh NNW 2.0 mph3.2 kmh 29.75 in1007.5 mb 0.00 in0.0 mm 0.00 in0.0 mm 0.00 in0.0 mm
09:04 AM 55.3°F12.9°C 45.8°F7.7°C 60% 2.0 mph NNW3.2 kmh NNW 2.0 mph3.2 kmh 29.75 in1007.5 mb 0.00 in0.0 mm 0.00 in0.0 mm 0.00 in0.0 mm
09:07 AM 55.4°F13.0°C 46.6°F8.1°C 62% 1.2 mph NNW1.9 kmh NNW 1.2 mph1.9 kmh 29.76 in1007.8 mb 0.00 in0.0 mm 0.00 in0.0 mm 0.00 in0.0 mm
09:10 AM 55.7°F13.2°C 45.6°F7.6°C 59% 0.8 mph NNW1.3 kmh NNW 0.8 mph1.3 kmh 29.76 in1007.8 mb 0.00 in0.0 mm 0.00 in0.0 mm 0.00 in0.0 mm
09:13 AM 56.6°F13.7°C 46.2°F7.9°C 60% 0.4 mph SSE0.6 kmh SSE 0.4 mph0.6 kmh 29.76 in1007.8 mb 0.00 in0.0 mm 0.00 in0.0 mm 0.00 in0.0 mm
09:16 AM 57.5°F14.2°C 47.0°F8.3°C 61% 2.4 mph SW3.9 kmh SW 2.4 mph3.9 kmh 29.76 in1007.8 mb 0.00 in0.0 mm 0.00 in0.0 mm 0.00 in0.0 mm
09:19 AM 57.2°F14.0°C 47.4°F8.6°C 62% 2.4 mph SE3.9 kmh SE 2.4 mph3.9 kmh 29.76 in1007.8 mb 0.00 in0.0 mm 0.00 in0.0 mm 0.00 in0.0 mm
09:22 AM 57.0°F13.9°C 46.7°F8.2°C 59% 2.8 mph S4.5 kmh S 2.8 mph4.5 kmh 29.76 in1007.8 mb 0.00 in0.0 mm 0.00 in0.0 mm 0.00 in0.0 mm
09:25 AM 57.0°F13.9°C 47.2°F8.4°C 59% 4.4 mph SSE7.1 kmh SSE 4.5 mph7.2 kmh 29.76 in1007.8 mb 0.00 in0.0 mm 0.00 in0.0 mm 0.00 in0.0 mm
09:28 AM 57.3°F14.1°C 47.1°F8.4°C 59% 2.0 mph SSW3.2 kmh SSW 2.0 mph3.2 kmh 29.76 in1007.8 mb 0.00 in0.0 mm 0.00 in0.0 mm 0.00 in0.0 mm
09:31 AM 57.4°F14.1°C 46.0°F7.8°C 56% 2.4 mph SW3.9 kmh SW 2.4 mph3.9 kmh 29.76 in1007.8 mb 0.00 in0.0 mm 0.00 in0.0 mm 0.00 in0.0 mm
09:34 AM 58.2°F14.6°C 46.5°F8.1°C 56% 1.2 mph SSW1.9 kmh SSW 1.2 mph1.9 kmh 29.76 in1007.8 mb 0.00 in0.0 mm 0.00 in0.0 mm 0.00 in0.0 mm
09:37 AM 59.1°F15.1°C 47.6°F8.7°C 58% 2.0 mph SW3.2 kmh SW 2.0 mph3.2 kmh 29.76 in1007.8 mb 0.00 in0.0 mm 0.00 in0.0 mm 0.00 in0.0 mm
09:40 AM 59.6°F15.3°C 47.8°F8.8°C 57% 3.6 mph SW5.8 kmh SW 3.7 mph6.0 kmh 29.76 in1007.8 mb 0.00 in0.0 mm 0.00 in0.0 mm 0.00 in0.0 mm
09:43 AM 58.2°F14.6°C 47.7°F8.7°C 56% 2.0 mph SE3.2 kmh SE 2.0 mph3.2 kmh 29.76 in1007.8 mb 0.00 in0.0 mm 0.00 in0.0 mm 0.00 in0.0 mm
09:46 AM 57.5°F14.2°C 47.0°F8.3°C 55% Calm Calm -- 29.76 in1007.8 mb 0.00 in0.0 mm 0.00 in0.0 mm 0.00 in0.0 mm
09:49 AM 57.9°F14.4°C 47.0°F8.3°C 55% 3.9 mph SE6.3 kmh SE 3.9 mph6.3 kmh 29.76 in1007.8 mb 0.00 in0.0 mm 0.00 in0.0 mm 0.00 in0.0 mm
09:52 AM 58.0°F14.4°C 48.9°F9.4°C 58% 4.4 mph NNW7.1 kmh NNW 4.4 mph7.1 kmh 29.76 in1007.8 mb 0.00 in0.0 mm 0.00 in0.0 mm 0.00 in0.0 mm
09:55 AM 58.6°F14.8°C 47.5°F8.6°C 55% 3.6 mph SSE5.8 kmh SSE 3.6 mph5.8 kmh 29.76 in1007.8 mb 0.00 in0.0 mm 0.00 in0.0 mm 0.00 in0.0 mm
09:58 AM 57.5°F14.2°C 46.5°F8.1°C 53% 4.2 mph S6.8 kmh S 4.3 mph6.9 kmh 29.77 in1008.1 mb 0.00 in0.0 mm 0.00 in0.0 mm 0.00 in0.0 mm
10:01 AM 58.7°F14.8°C 47.0°F8.3°C 54% 3.2 mph S5.1 kmh S 3.2 mph5.1 kmh 29.77 in1008.1 mb 0.00 in0.0 mm 0.00 in0.0 mm 0.00 in0.0 mm
10:04 AM 58.2°F14.6°C 47.0°F8.3°C 53% Calm Calm -- 29.76 in1007.8 mb 0.00 in0.0 mm 0.00 in0.0 mm 0.00 in0.0 mm
10:07 AM 59.5°F15.3°C 47.1°F8.4°C 53% 1.6 mph SW2.6 kmh SW 1.6 mph2.6 kmh 29.77 in1008.1 mb 0.00 in0.0 mm 0.00 in0.0 mm 0.00 in0.0 mm
10:10 AM 59.1°F15.1°C 47.9°F8.8°C 54% 3.2 mph SW5.1 kmh SW 3.3 mph5.3 kmh 29.77 in1008.1 mb 0.00 in0.0 mm 0.00 in0.0 mm 0.00 in0.0 mm
10:13 AM 60.1°F15.6°C 47.6°F8.7°C 53% 2.8 mph WSW4.5 kmh WSW 2.9 mph4.7 kmh 29.77 in1008.1 mb 0.00 in0.0 mm 0.00 in0.0 mm 0.00 in0.0 mm
10:16 AM 59.5°F15.3°C 47.3°F8.5°C 53% 4.0 mph NNW6.4 kmh NNW 4.1 mph6.6 kmh 29.77 in1008.1 mb 0.00 in0.0 mm 0.00 in0.0 mm 0.00 in0.0 mm
10:19 AM 61.9°F16.6°C 49.2°F9.6°C 55% 2.4 mph WNW3.9 kmh WNW 2.4 mph3.9 kmh 29.77 in1008.1 mb 0.00 in0.0 mm 0.00 in0.0 mm 0.00 in0.0 mm
10:22 AM 60.0°F15.6°C 48.0°F8.9°C 52% 3.2 mph SW5.1 kmh SW 3.3 mph5.3 kmh 29.77 in1008.1 mb 0.00 in0.0 mm 0.00 in0.0 mm 0.00 in0.0 mm
10:25 AM 60.6°F15.9°C 48.1°F8.9°C 52% 2.4 mph NNW3.9 kmh NNW 2.5 mph4.0 kmh 29.77 in1008.1 mb 0.00 in0.0 mm 0.00 in0.0 mm 0.00 in0.0 mm
10:28 AM 60.7°F15.9°C 47.5°F8.6°C 51% 2.0 mph NNW3.2 kmh NNW 2.0 mph3.2 kmh 29.77 in1008.1 mb 0.00 in0.0 mm 0.00 in0.0 mm 0.00 in0.0 mm
10:31 AM 60.7°F15.9°C 48.4°F9.1°C 52% 3.1 mph W5.0 kmh W 3.2 mph5.1 kmh 29.77 in1008.1 mb 0.00 in0.0 mm 0.00 in0.0 mm 0.00 in0.0 mm
10:34 AM 59.8°F15.4°C 47.9°F8.8°C 52% 4.4 mph SW7.1 kmh SW 4.5 mph7.2 kmh 29.77 in1008.1 mb 0.00 in0.0 mm 0.00 in0.0 mm 0.00 in0.0 mm
10:37 AM 59.8°F15.4°C 47.8°F8.8°C 51% 4.4 mph WSW7.1 kmh WSW 4.5 mph7.2 kmh 29.77 in1008.1 mb 0.00 in0.0 mm 0.00 in0.0 mm 0.00 in0.0 mm
10:40 AM 60.8°F16.0°C 47.9°F8.8°C 52% 2.8 mph NNW4.5 kmh NNW 2.9 mph4.7 kmh 29.77 in1008.1 mb 0.00 in0.0 mm 0.00 in0.0 mm 0.00 in0.0 mm
10:43 AM 61.6°F16.4°C 48.0°F8.9°C 52% 2.4 mph W3.9 kmh W 2.4 mph3.9 kmh 29.77 in1008.1 mb 0.00 in0.0 mm 0.00 in0.0 mm 0.00 in0.0 mm
10:46 AM 61.1°F16.2°C 47.7°F8.7°C 50% 0.4 mph SW0.6 kmh SW 0.4 mph0.6 kmh 29.77 in1008.1 mb 0.00 in0.0 mm 0.00 in0.0 mm 0.00 in0.0 mm
10:49 AM 60.0°F15.6°C 47.0°F8.3°C 49% 2.0 mph S3.2 kmh S 2.0 mph3.2 kmh 29.77 in1008.1 mb 0.00 in0.0 mm 0.00 in0.0 mm 0.00 in0.0 mm
10:52 AM 61.0°F16.1°C 48.1°F8.9°C 51% 2.0 mph SW3.2 kmh SW 2.0 mph3.2 kmh 29.77 in1008.1 mb 0.00 in0.0 mm 0.00 in0.0 mm 0.00 in0.0 mm
10:55 AM 60.7°F15.9°C 47.8°F8.8°C 50% Calm Calm -- 29.77 in1008.1 mb 0.00 in0.0 mm 0.00 in0.0 mm 0.00 in0.0 mm
10:58 AM 62.6°F17.0°C 48.6°F9.2°C 51% Calm Calm -- 29.77 in1008.1 mb 0.00 in0.0 mm 0.00 in0.0 mm 0.00 in0.0 mm
11:01 AM 62.9°F17.2°C 49.3°F9.6°C 52% Calm Calm -- 29.77 in1008.1 mb 0.00 in0.0 mm 0.00 in0.0 mm 0.00 in0.0 mm
11:04 AM 61.6°F16.4°C 48.9°F9.4°C 51% 2.0 mph S3.2 kmh S 2.0 mph3.2 kmh 29.77 in1008.1 mb 0.00 in0.0 mm 0.00 in0.0 mm 0.00 in0.0 mm
11:07 AM 62.7°F17.1°C 49.9°F9.9°C 53% 2.4 mph SW3.9 kmh SW 2.5 mph4.0 kmh 29.77 in1008.1 mb 0.00 in0.0 mm 0.00 in0.0 mm 0.00 in0.0 mm
11:10 AM 63.4°F17.4°C 49.8°F9.9°C 52% 2.8 mph WNW4.5 kmh WNW 2.8 mph4.5 kmh 29.77 in1008.1 mb 0.00 in0.0 mm 0.00 in0.0 mm 0.00 in0.0 mm
11:13 AM 63.5°F17.5°C 49.1°F9.5°C 50% 0.4 mph 0.6 kmh 0.4 mph0.6 kmh 29.77 in1008.1 mb 0.00 in0.0 mm 0.00 in0.0 mm 0.00 in0.0 mm
11:16 AM 62.6°F17.0°C 50.5°F10.3°C 52% 5.2 mph WSW8.4 kmh WSW 5.2 mph8.4 kmh 29.77 in1008.1 mb 0.00 in0.0 mm 0.00 in0.0 mm 0.00 in0.0 mm
11:19 AM 64.3°F17.9°C 49.6°F9.8°C 50% 1.2 mph WSW1.9 kmh WSW 1.2 mph1.9 kmh 29.77 in1008.1 mb 0.00 in0.0 mm 0.00 in0.0 mm 0.00 in0.0 mm
11:22 AM 63.7°F17.6°C 50.8°F10.4°C 51% 4.0 mph SSE6.4 kmh SSE 4.0 mph6.4 kmh 29.77 in1008.1 mb 0.00 in0.0 mm 0.00 in0.0 mm 0.00 in0.0 mm
11:25 AM 62.4°F16.9°C 49.3°F9.6°C 49% 3.2 mph S5.1 kmh S 3.3 mph5.3 kmh 29.77 in1008.1 mb 0.00 in0.0 mm 0.00 in0.0 mm 0.00 in0.0 mm
11:28 AM 63.8°F17.7°C 49.2°F9.6°C 47% Calm Calm -- 29.77 in1008.1 mb 0.00 in0.0 mm 0.00 in0.0 mm 0.00 in0.0 mm
11:31 AM 63.1°F17.3°C 49.2°F9.6°C 48% 2.0 mph SSE3.2 kmh SSE 2.0 mph3.2 kmh 29.77 in1008.1 mb 0.00 in0.0 mm 0.00 in0.0 mm 0.00 in0.0 mm
11:34 AM 63.6°F17.6°C 51.1°F10.6°C 51% 5.2 mph NNW8.4 kmh NNW 5.2 mph8.4 kmh 29.77 in1008.1 mb 0.00 in0.0 mm 0.00 in0.0 mm 0.00 in0.0 mm
11:37 AM 63.3°F17.4°C 49.7°F9.8°C 48% 4.4 mph WSW7.1 kmh WSW 4.5 mph7.2 kmh 29.77 in1008.1 mb 0.00 in0.0 mm 0.00 in0.0 mm 0.00 in0.0 mm
11:40 AM 62.9°F17.2°C 49.3°F9.6°C 46% 5.3 mph NNW8.5 kmh NNW 5.3 mph8.5 kmh 29.77 in1008.1 mb 0.00 in0.0 mm 0.00 in0.0 mm 0.00 in0.0 mm
11:43 AM 63.6°F17.6°C 50.2°F10.1°C 48% 1.5 mph SSW2.4 kmh SSW 1.6 mph2.6 kmh 29.77 in1008.1 mb 0.00 in0.0 mm 0.00 in0.0 mm 0.00 in0.0 mm
11:46 AM 62.0°F16.7°C 48.3°F9.1°C 44% 0.8 mph SSE1.3 kmh SSE 0.8 mph1.3 kmh 29.77 in1008.1 mb 0.00 in0.0 mm 0.00 in0.0 mm 0.00 in0.0 mm
11:52 AM 63.4°F17.4°C 49.9°F9.9°C 47% 6.5 mph SW10.5 kmh SW 6.5 mph10.5 kmh 29.77 in1008.1 mb 0.00 in0.0 mm 0.00 in0.0 mm 0.00 in0.0 mm
11:55 AM 62.9°F17.2°C 49.0°F9.4°C 45% 2.8 mph WSW4.5 kmh WSW 2.9 mph4.7 kmh 29.77 in1008.1 mb 0.00 in0.0 mm 0.00 in0.0 mm 0.00 in0.0 mm
11:58 AM 63.6°F17.6°C 49.2°F9.6°C 46% 3.2 mph SE5.1 kmh SE 3.3 mph5.3 kmh 29.77 in1008.1 mb 0.00 in0.0 mm 0.00 in0.0 mm 0.00 in0.0 mm
12:01 PM 63.3°F17.4°C 48.9°F9.4°C 46% Calm Calm -- 29.77 in1008.1 mb 0.00 in0.0 mm 0.00 in0.0 mm 0.00 in0.0 mm
12:04 PM 64.2°F17.9°C 50.9°F10.5°C 49% 4.0 mph S6.4 kmh S 4.0 mph6.4 kmh 29.78 in1008.5 mb 0.00 in0.0 mm 0.00 in0.0 mm 0.00 in0.0 mm
12:07 PM 63.6°F17.6°C 49.4°F9.7°C 46% 2.7 mph NNW4.3 kmh NNW 2.7 mph4.3 kmh 29.77 in1008.1 mb 0.00 in0.0 mm 0.00 in0.0 mm 0.00 in0.0 mm
12:10 PM 62.9°F17.2°C 49.9°F9.9°C 48% 4.0 mph SE6.4 kmh SE 4.0 mph6.4 kmh 29.77 in1008.1 mb 0.00 in0.0 mm 0.00 in0.0 mm 0.00 in0.0 mm
12:13 PM 63.6°F17.6°C 49.2°F9.6°C 47% 2.8 mph SE4.5 kmh SE 2.9 mph4.7 kmh 29.77 in1008.1 mb 0.00 in0.0 mm 0.00 in0.0 mm 0.00 in0.0 mm
12:16 PM 63.7°F17.6°C 49.3°F9.6°C 47% 1.9 mph SE3.1 kmh SE 2.0 mph3.2 kmh 29.77 in1008.1 mb 0.00 in0.0 mm 0.00 in0.0 mm 0.00 in0.0 mm
12:19 PM 64.0°F17.8°C 49.8°F9.9°C 48% 3.2 mph ESE5.1 kmh ESE 3.3 mph5.3 kmh 29.77 in1008.1 mb 0.00 in0.0 mm 0.00 in0.0 mm 0.00 in0.0 mm
12:22 PM 63.1°F17.3°C 49.4°F9.7°C 48% 6.1 mph S9.8 kmh S 6.1 mph9.8 kmh 29.77 in1008.1 mb 0.00 in0.0 mm 0.00 in0.0 mm 0.00 in0.0 mm
12:25 PM 62.7°F17.1°C 48.3°F9.1°C 46% 1.5 mph S2.4 kmh S 1.5 mph2.4 kmh 29.77 in1008.1 mb 0.00 in0.0 mm 0.00 in0.0 mm 0.00 in0.0 mm
12:28 PM 65.0°F18.3°C 50.7°F10.4°C 50% 2.0 mph SSE3.2 kmh SSE 2.0 mph3.2 kmh 29.77 in1008.1 mb 0.00 in0.0 mm 0.00 in0.0 mm 0.00 in0.0 mm
12:34 PM 64.9°F18.3°C 49.9°F9.9°C 47% 3.5 mph SSE5.6 kmh SSE 3.5 mph5.6 kmh 29.77 in1008.1 mb 0.00 in0.0 mm 0.00 in0.0 mm 0.00 in0.0 mm
12:37 PM 62.7°F17.1°C 48.9°F9.4°C 46% 2.4 mph S3.9 kmh S 2.4 mph3.9 kmh 29.78 in1008.5 mb 0.00 in0.0 mm 0.00 in0.0 mm 0.00 in0.0 mm
12:40 PM 61.7°F16.5°C 49.2°F9.6°C 46% 2.0 mph NE3.2 kmh NE 2.0 mph3.2 kmh 29.77 in1008.1 mb 0.00 in0.0 mm 0.00 in0.0 mm 0.00 in0.0 mm
12:43 PM 63.2°F17.3°C 49.7°F9.8°C 46% Calm Calm -- 29.78 in1008.5 mb 0.00 in0.0 mm 0.00 in0.0 mm 0.00 in0.0 mm
12:46 PM 64.5°F18.1°C 50.7°F10.4°C 48% Calm Calm -- 29.78 in1008.5 mb 0.00 in0.0 mm 0.00 in0.0 mm 0.00 in0.0 mm
12:49 PM 62.8°F17.1°C 48.7°F9.3°C 45% 4.5 mph S7.2 kmh S 4.5 mph7.2 kmh 29.77 in1008.1 mb 0.00 in0.0 mm 0.00 in0.0 mm 0.00 in0.0 mm
12:52 PM 62.8°F17.1°C 48.9°F9.4°C 46% 4.0 mph SSE6.4 kmh SSE 4.0 mph6.4 kmh 29.78 in1008.5 mb 0.00 in0.0 mm 0.00 in0.0 mm 0.00 in0.0 mm
12:55 PM 64.2°F17.9°C 49.6°F9.8°C 47% 0.8 mph SSE1.3 kmh SSE 0.8 mph1.3 kmh 29.78 in1008.5 mb 0.00 in0.0 mm 0.00 in0.0 mm 0.00 in0.0 mm
12:58 PM 63.8°F17.7°C 51.0°F10.6°C 48% 5.3 mph NNW8.5 kmh NNW 5.3 mph8.5 kmh 29.77 in1008.1 mb 0.00 in0.0 mm 0.00 in0.0 mm 0.00 in0.0 mm
01:01 PM 64.4°F18.0°C 49.3°F9.6°C 46% 4.0 mph NNW6.4 kmh NNW 4.1 mph6.6 kmh 29.78 in1008.5 mb 0.00 in0.0 mm 0.00 in0.0 mm 0.00 in0.0 mm
01:04 PM 64.6°F18.1°C 49.5°F9.7°C 46% 0.8 mph SSW1.3 kmh SSW 0.8 mph1.3 kmh 29.78 in1008.5 mb 0.00 in0.0 mm 0.00 in0.0 mm 0.00 in0.0 mm
01:07 PM 65.3°F18.5°C 49.2°F9.6°C 45% 5.3 mph NNW8.5 kmh NNW 5.3 mph8.5 kmh 29.78 in1008.5 mb 0.00 in0.0 mm 0.00 in0.0 mm 0.00 in0.0 mm
01:10 PM 65.4°F18.6°C 49.1°F9.5°C 44% 3.2 mph NNW5.1 kmh NNW 3.2 mph5.1 kmh 29.78 in1008.5 mb 0.00 in0.0 mm 0.00 in0.0 mm 0.00 in0.0 mm
01:13 PM 64.4°F18.0°C 48.8°F9.3°C 44% 2.8 mph SSE4.5 kmh SSE 2.9 mph4.7 kmh 29.77 in1008.1 mb 0.00 in0.0 mm 0.00 in0.0 mm 0.00 in0.0 mm
01:16 PM 64.9°F18.3°C 50.5°F10.3°C 46% 1.6 mph SSW2.6 kmh SSW 1.6 mph2.6 kmh 29.78 in1008.5 mb 0.00 in0.0 mm 0.00 in0.0 mm 0.00 in0.0 mm
01:19 PM 65.1°F18.4°C 49.5°F9.7°C 45% 2.4 mph NNW3.9 kmh NNW 2.4 mph3.9 kmh 29.78 in1008.5 mb 0.00 in0.0 mm 0.00 in0.0 mm 0.00 in0.0 mm
01:22 PM 64.1°F17.8°C 48.6°F9.2°C 43% 0.4 mph S0.6 kmh S 0.4 mph0.6 kmh 29.78 in1008.5 mb 0.00 in0.0 mm 0.00 in0.0 mm 0.00 in0.0 mm
01:25 PM 67.1°F19.5°C 50.3°F10.2°C 46% 1.2 mph NNW1.9 kmh NNW 1.2 mph1.9 kmh 29.78 in1008.5 mb 0.00 in0.0 mm 0.00 in0.0 mm 0.00 in0.0 mm
01:28 PM 66.0°F18.9°C 49.4°F9.7°C 44% 2.0 mph SW3.2 kmh SW 2.0 mph3.2 kmh 29.78 in1008.5 mb 0.00 in0.0 mm 0.00 in0.0 mm 0.00 in0.0 mm
01:31 PM 65.6°F18.7°C 50.4°F10.2°C 45% 1.6 mph NNW2.6 kmh NNW 1.6 mph2.6 kmh 29.77 in1008.1 mb 0.00 in0.0 mm 0.00 in0.0 mm 0.00 in0.0 mm
01:34 PM 63.7°F17.6°C 49.7°F9.8°C 44% 2.0 mph S3.2 kmh S 2.0 mph3.2 kmh 29.78 in1008.5 mb 0.00 in0.0 mm 0.00 in0.0 mm 0.00 in0.0 mm
01:37 PM 65.3°F18.5°C 50.8°F10.4°C 46% 4.4 mph SW7.1 kmh SW 4.4 mph7.1 kmh 29.78 in1008.5 mb 0.00 in0.0 mm 0.00 in0.0 mm 0.00 in0.0 mm
01:40 PM 65.1°F18.4°C 50.0°F10.0°C 44% 2.4 mph SSW3.9 kmh SSW 2.4 mph3.9 kmh 29.78 in1008.5 mb 0.00 in0.0 mm 0.00 in0.0 mm 0.00 in0.0 mm
01:43 PM 63.2°F17.3°C 48.3°F9.1°C 42% 1.6 mph NNW2.6 kmh NNW 1.6 mph2.6 kmh 29.78 in1008.5 mb 0.00 in0.0 mm 0.00 in0.0 mm 0.00 in0.0 mm
01:46 PM 64.6°F18.1°C 50.0°F10.0°C 45% 3.2 mph SW5.1 kmh SW 3.2 mph5.1 kmh 29.78 in1008.5 mb 0.00 in0.0 mm 0.00 in0.0 mm 0.00 in0.0 mm
01:49 PM 64.6°F18.1°C 49.2°F9.6°C 44% 2.4 mph SW3.9 kmh SW 2.4 mph3.9 kmh 29.78 in1008.5 mb 0.00 in0.0 mm 0.00 in0.0 mm 0.00 in0.0 mm
01:52 PM 63.7°F17.6°C 49.9°F9.9°C 45% 1.9 mph SSE3.1 kmh SSE 2.0 mph3.2 kmh 29.78 in1008.5 mb 0.00 in0.0 mm 0.00 in0.0 mm 0.00 in0.0 mm
01:55 PM 63.8°F17.7°C 49.4°F9.7°C 45% 0.4 mph NNW0.6 kmh NNW 0.4 mph0.6 kmh 29.78 in1008.5 mb 0.00 in0.0 mm 0.00 in0.0 mm 0.00 in0.0 mm
01:58 PM 64.1°F17.8°C 50.0°F10.0°C 46% 4.8 mph S7.7 kmh S 4.9 mph7.9 kmh 29.78 in1008.5 mb 0.00 in0.0 mm 0.00 in0.0 mm 0.00 in0.0 mm
02:01 PM 63.5°F17.5°C 50.6°F10.3°C 47% 0.8 mph S1.3 kmh S 0.8 mph1.3 kmh 29.78 in1008.5 mb 0.00 in0.0 mm 0.00 in0.0 mm 0.00 in0.0 mm
02:04 PM 63.6°F17.6°C 50.3°F10.2°C 46% 4.0 mph WSW6.4 kmh WSW 4.1 mph6.6 kmh 29.78 in1008.5 mb 0.00 in0.0 mm 0.00 in0.0 mm 0.00 in0.0 mm
02:07 PM 63.1°F17.3°C 49.3°F9.6°C 45% 2.8 mph SW4.5 kmh SW 2.8 mph4.5 kmh 29.78 in1008.5 mb 0.00 in0.0 mm 0.00 in0.0 mm 0.00 in0.0 mm
02:10 PM 61.9°F16.6°C 49.2°F9.6°C 45% 1.6 mph S2.6 kmh S 1.6 mph2.6 kmh 29.77 in1008.1 mb 0.00 in0.0 mm 0.00 in0.0 mm 0.00 in0.0 mm
02:13 PM 62.5°F16.9°C 49.3°F9.6°C 46% 2.8 mph SW4.5 kmh SW 2.8 mph4.5 kmh 29.78 in1008.5 mb 0.00 in0.0 mm 0.00 in0.0 mm 0.00 in0.0 mm
02:16 PM 61.9°F16.6°C 49.3°F9.6°C 46% 3.4 mph SSE5.5 kmh SSE 3.4 mph5.5 kmh 29.78 in1008.5 mb 0.00 in0.0 mm 0.00 in0.0 mm 0.00 in0.0 mm
02:19 PM 61.8°F16.6°C 49.1°F9.5°C 46% 1.2 mph S1.9 kmh S 1.2 mph1.9 kmh 29.78 in1008.5 mb 0.00 in0.0 mm 0.00 in0.0 mm 0.00 in0.0 mm
02:22 PM 61.8°F16.6°C 49.7°F9.8°C 47% 5.2 mph NNW8.4 kmh NNW 5.2 mph8.4 kmh 29.78 in1008.5 mb 0.00 in0.0 mm 0.00 in0.0 mm 0.00 in0.0 mm
02:25 PM 61.4°F16.3°C 48.7°F9.3°C 46% 0.4 mph S0.6 kmh S 0.4 mph0.6 kmh 29.78 in1008.5 mb 0.00 in0.0 mm 0.00 in0.0 mm 0.00 in0.0 mm
02:28 PM 61.9°F16.6°C 49.4°F9.7°C 47% 5.6 mph W9.0 kmh W 5.6 mph9.0 kmh 29.78 in1008.5 mb 0.00 in0.0 mm 0.00 in0.0 mm 0.00 in0.0 mm
02:34 PM 61.4°F16.3°C 49.6°F9.8°C 47% 1.9 mph SW3.1 kmh SW 1.9 mph3.1 kmh 29.79 in1008.8 mb 0.00 in0.0 mm 0.00 in0.0 mm 0.00 in0.0 mm
02:37 PM 61.0°F16.1°C 49.1°F9.5°C 46% 1.2 mph SW1.9 kmh SW 1.2 mph1.9 kmh 29.78 in1008.5 mb 0.00 in0.0 mm 0.00 in0.0 mm 0.00 in0.0 mm
02:40 PM 61.5°F16.4°C 48.9°F9.4°C 46% 2.0 mph SW3.2 kmh SW 2.0 mph3.2 kmh 29.78 in1008.5 mb 0.00 in0.0 mm 0.00 in0.0 mm 0.00 in0.0 mm
02:43 PM 60.6°F15.9°C 48.5°F9.2°C 46% 1.5 mph SSW2.4 kmh SSW 1.6 mph2.6 kmh 29.79 in1008.8 mb 0.00 in0.0 mm 0.00 in0.0 mm 0.00 in0.0 mm
02:46 PM 60.9°F16.1°C 49.6°F9.8°C 48% 0.8 mph SSW1.3 kmh SSW 0.8 mph1.3 kmh 29.78 in1008.5 mb 0.00 in0.0 mm 0.00 in0.0 mm 0.00 in0.0 mm
02:49 PM 60.8°F16.0°C 49.2°F9.6°C 47% 1.2 mph NNW1.9 kmh NNW 1.2 mph1.9 kmh 29.78 in1008.5 mb 0.00 in0.0 mm 0.00 in0.0 mm 0.00 in0.0 mm
02:52 PM 60.4°F15.8°C 48.6°F9.2°C 46% 1.5 mph SW2.4 kmh SW 1.6 mph2.6 kmh 29.79 in1008.8 mb 0.00 in0.0 mm 0.00 in0.0 mm 0.00 in0.0 mm
02:55 PM 60.8°F16.0°C 49.1°F9.5°C 47% 5.2 mph WSW8.4 kmh WSW 5.3 mph8.5 kmh 29.79 in1008.8 mb 0.00 in0.0 mm 0.00 in0.0 mm 0.00 in0.0 mm
02:58 PM 61.5°F16.4°C 49.1°F9.5°C 47% 1.6 mph W2.6 kmh W 1.6 mph2.6 kmh 29.79 in1008.8 mb 0.00 in0.0 mm 0.00 in0.0 mm 0.00 in0.0 mm
03:01 PM 61.1°F16.2°C 48.8°F9.3°C 47% 0.4 mph NW0.6 kmh NW 0.4 mph0.6 kmh 29.79 in1008.8 mb 0.00 in0.0 mm 0.00 in0.0 mm 0.00 in0.0 mm
03:04 PM 60.2°F15.7°C 48.9°F9.4°C 47% 4.0 mph NNW6.4 kmh NNW 4.1 mph6.6 kmh 29.79 in1008.8 mb 0.00 in0.0 mm 0.00 in0.0 mm 0.00 in0.0 mm
03:07 PM 60.8°F16.0°C 48.1°F8.9°C 46% 4.4 mph NW7.1 kmh NW 4.4 mph7.1 kmh 29.79 in1008.8 mb 0.00 in0.0 mm 0.00 in0.0 mm 0.00 in0.0 mm
03:10 PM 60.5°F15.8°C 48.6°F9.2°C 47% 4.4 mph NW7.1 kmh NW 4.4 mph7.1 kmh 29.79 in1008.8 mb 0.00 in0.0 mm 0.00 in0.0 mm 0.00 in0.0 mm
03:13 PM 60.4°F15.8°C 48.5°F9.2°C 47% 1.6 mph W2.6 kmh W 1.6 mph2.6 kmh 29.79 in1008.8 mb 0.00 in0.0 mm 0.00 in0.0 mm 0.00 in0.0 mm
03:16 PM 60.4°F15.8°C 48.9°F9.4°C 48% 3.5 mph NNW5.6 kmh NNW 3.5 mph5.6 kmh 29.79 in1008.8 mb 0.00 in0.0 mm 0.00 in0.0 mm 0.00 in0.0 mm
03:19 PM 60.0°F15.6°C 48.4°F9.1°C 47% 1.6 mph WNW2.6 kmh WNW 1.6 mph2.6 kmh 29.79 in1008.8 mb 0.00 in0.0 mm 0.00 in0.0 mm 0.00 in0.0 mm
03:22 PM 59.6°F15.3°C 48.7°F9.3°C 48% 2.0 mph NW3.2 kmh NW 2.0 mph3.2 kmh 29.79 in1008.8 mb 0.00 in0.0 mm 0.00 in0.0 mm 0.00 in0.0 mm
03:25 PM 59.7°F15.4°C 48.3°F9.1°C 47% 1.5 mph W2.4 kmh W 1.6 mph2.6 kmh 29.79 in1008.8 mb 0.00 in0.0 mm 0.00 in0.0 mm 0.00 in0.0 mm
03:28 PM 59.5°F15.3°C 48.6°F9.2°C 48% 4.9 mph 7.9 kmh 4.9 mph7.9 kmh 29.79 in1008.8 mb 0.00 in0.0 mm 0.00 in0.0 mm 0.00 in0.0 mm
03:31 PM 58.8°F14.9°C 48.5°F9.2°C 48% 4.7 mph NNE7.6 kmh NNE 4.7 mph7.6 kmh 29.79 in1008.8 mb 0.00 in0.0 mm 0.00 in0.0 mm 0.00 in0.0 mm
03:34 PM 59.0°F15.0°C 48.8°F9.3°C 49% 3.2 mph NNW5.1 kmh NNW 3.3 mph5.3 kmh 29.79 in1008.8 mb 0.00 in0.0 mm 0.00 in0.0 mm 0.00 in0.0 mm
03:37 PM 59.3°F15.2°C 48.7°F9.3°C 49% 1.2 mph WNW1.9 kmh WNW 1.2 mph1.9 kmh 29.79 in1008.8 mb 0.00 in0.0 mm 0.00 in0.0 mm 0.00 in0.0 mm
03:40 PM 59.1°F15.1°C 49.5°F9.7°C 51% 3.2 mph NW5.1 kmh NW 3.3 mph5.3 kmh 29.79 in1008.8 mb 0.00 in0.0 mm 0.00 in0.0 mm 0.00 in0.0 mm
03:43 PM 59.0°F15.0°C 48.5°F9.2°C 49% 3.6 mph NNW5.8 kmh NNW 3.7 mph6.0 kmh 29.79 in1008.8 mb 0.00 in0.0 mm 0.00 in0.0 mm 0.00 in0.0 mm
03:46 PM 59.6°F15.3°C 49.1°F9.5°C 50% 2.4 mph NNW3.9 kmh NNW 2.4 mph3.9 kmh 29.80 in1009.1 mb 0.00 in0.0 mm 0.00 in0.0 mm 0.00 in0.0 mm
03:49 PM 59.7°F15.4°C 49.0°F9.4°C 50% 2.8 mph NNE4.5 kmh NNE 2.8 mph4.5 kmh 29.80 in1009.1 mb 0.00 in0.0 mm 0.00 in0.0 mm 0.00 in0.0 mm
03:52 PM 59.8°F15.4°C 48.7°F9.3°C 50% 2.4 mph NW3.9 kmh NW 2.4 mph3.9 kmh 29.80 in1009.1 mb 0.00 in0.0 mm 0.00 in0.0 mm 0.00 in0.0 mm
03:55 PM 60.0°F15.6°C 49.0°F9.4°C 49% 4.4 mph NNW7.1 kmh NNW 4.5 mph7.2 kmh 29.80 in1009.1 mb 0.00 in0.0 mm 0.00 in0.0 mm 0.00 in0.0 mm
03:58 PM 60.2°F15.7°C 48.5°F9.2°C 49% 2.8 mph W4.5 kmh W 2.9 mph4.7 kmh 29.80 in1009.1 mb 0.00 in0.0 mm 0.00 in0.0 mm 0.00 in0.0 mm
04:01 PM 60.4°F15.8°C 48.4°F9.1°C 49% 2.8 mph NNW4.5 kmh NNW 2.9 mph4.7 kmh 29.80 in1009.1 mb 0.00 in0.0 mm 0.00 in0.0 mm 0.00 in0.0 mm
04:04 PM 59.7°F15.4°C 48.5°F9.2°C 50% 2.4 mph NNW3.9 kmh NNW 2.4 mph3.9 kmh 29.80 in1009.1 mb 0.00 in0.0 mm 0.00 in0.0 mm 0.00 in0.0 mm
04:07 PM 59.5°F15.3°C 48.8°F9.3°C 50% 0.8 mph NNW1.3 kmh NNW 0.8 mph1.3 kmh 29.80 in1009.1 mb 0.00 in0.0 mm 0.00 in0.0 mm 0.00 in0.0 mm
04:10 PM 59.7°F15.4°C 48.5°F9.2°C 50% 1.6 mph W2.6 kmh W 1.6 mph2.6 kmh 29.80 in1009.1 mb 0.00 in0.0 mm 0.00 in0.0 mm 0.00 in0.0 mm
04:13 PM 59.1°F15.1°C 48.6°F9.2°C 50% 1.6 mph W2.6 kmh W 1.6 mph2.6 kmh 29.80 in1009.1 mb 0.00 in0.0 mm 0.00 in0.0 mm 0.00 in0.0 mm
04:16 PM 58.9°F14.9°C 48.9°F9.4°C 51% 2.8 mph NNW4.5 kmh NNW 2.8 mph4.5 kmh 29.80 in1009.1 mb 0.00 in0.0 mm 0.00 in0.0 mm 0.00 in0.0 mm
04:19 PM 58.4°F14.7°C 48.2°F9.0°C 50% 2.4 mph 3.9 kmh 2.4 mph3.9 kmh 29.80 in1009.1 mb 0.00 in0.0 mm 0.00 in0.0 mm 0.00 in0.0 mm
04:22 PM 58.7°F14.8°C 48.5°F9.2°C 50% 2.8 mph WNW4.5 kmh WNW 2.8 mph4.5 kmh 29.81 in1009.5 mb 0.00 in0.0 mm 0.00 in0.0 mm 0.00 in0.0 mm
04:25 PM 58.3°F14.6°C 49.0°F9.4°C 51% 4.8 mph NW7.7 kmh NW 4.9 mph7.9 kmh 29.81 in1009.5 mb 0.00 in0.0 mm 0.00 in0.0 mm 0.00 in0.0 mm
04:28 PM 58.1°F14.5°C 48.1°F8.9°C 50% 1.6 mph NW2.6 kmh NW 1.6 mph2.6 kmh 29.81 in1009.5 mb 0.00 in0.0 mm 0.00 in0.0 mm 0.00 in0.0 mm
04:31 PM 58.1°F14.5°C 48.3°F9.1°C 51% 1.6 mph 2.6 kmh 1.6 mph2.6 kmh 29.81 in1009.5 mb 0.00 in0.0 mm 0.00 in0.0 mm 0.00 in0.0 mm
04:34 PM 58.3°F14.6°C 48.5°F9.2°C 51% 1.6 mph W2.6 kmh W 1.6 mph2.6 kmh 29.81 in1009.5 mb 0.00 in0.0 mm 0.00 in0.0 mm 0.00 in0.0 mm
04:37 PM 58.3°F14.6°C 48.4°F9.1°C 51% 2.8 mph W4.5 kmh W 2.8 mph4.5 kmh 29.81 in1009.5 mb 0.00 in0.0 mm 0.00 in0.0 mm 0.00 in0.0 mm
04:40 PM 57.9°F14.4°C 48.4°F9.1°C 51% 2.8 mph WNW4.5 kmh WNW 2.8 mph4.5 kmh 29.81 in1009.5 mb 0.00 in0.0 mm 0.00 in0.0 mm 0.00 in0.0 mm
04:43 PM 57.9°F14.4°C 48.6°F9.2°C 51% Calm Calm -- 29.81 in1009.5 mb 0.00 in0.0 mm 0.00 in0.0 mm 0.00 in0.0 mm
04:46 PM 57.4°F14.1°C 48.2°F9.0°C 51% 2.4 mph W3.9 kmh W 2.4 mph3.9 kmh 29.81 in1009.5 mb 0.00 in0.0 mm 0.00 in0.0 mm 0.00 in0.0 mm
04:49 PM 57.7°F14.3°C 48.0°F8.9°C 51% 2.8 mph NW4.5 kmh NW 2.9 mph4.7 kmh 29.81 in1009.5 mb 0.00 in0.0 mm 0.00 in0.0 mm 0.00 in0.0 mm
04:55 PM 57.2°F14.0°C 48.2°F9.0°C 52% 2.8 mph NNW4.5 kmh NNW 2.9 mph4.7 kmh 29.81 in1009.5 mb 0.00 in0.0 mm 0.00 in0.0 mm 0.00 in0.0 mm
04:58 PM 57.1°F13.9°C 47.9°F8.8°C 51% 2.8 mph NNW4.5 kmh NNW 2.8 mph4.5 kmh 29.81 in1009.5 mb 0.00 in0.0 mm 0.00 in0.0 mm 0.00 in0.0 mm
05:01 PM 57.1°F13.9°C 48.0°F8.9°C 52% 1.2 mph NW1.9 kmh NW 1.2 mph1.9 kmh 29.81 in1009.5 mb 0.00 in0.0 mm 0.00 in0.0 mm 0.00 in0.0 mm
05:04 PM 57.0°F13.9°C 48.3°F9.1°C 53% 0.4 mph W0.6 kmh W 0.4 mph0.6 kmh 29.81 in1009.5 mb 0.00 in0.0 mm 0.00 in0.0 mm 0.00 in0.0 mm
05:05 PM 56.9°F13.8°C 48.1°F8.9°C 52% 2.8 mph NNW4.5 kmh NNW 2.8 mph4.5 kmh 29.81 in1009.5 mb 0.00 in0.0 mm 0.00 in0.0 mm 0.00 in0.0 mm
05:08 PM 56.6°F13.7°C 47.6°F8.7°C 52% 1.2 mph NNW1.9 kmh NNW 1.2 mph1.9 kmh 29.81 in1009.5 mb 0.00 in0.0 mm 0.00 in0.0 mm 0.00 in0.0 mm
05:11 PM 56.5°F13.6°C 47.6°F8.7°C 52% 1.6 mph NW2.6 kmh NW 1.6 mph2.6 kmh 29.81 in1009.5 mb 0.00 in0.0 mm 0.00 in0.0 mm 0.00 in0.0 mm
05:14 PM 56.3°F13.5°C 47.7°F8.7°C 53% 2.8 mph NW4.5 kmh NW 2.9 mph4.7 kmh 29.81 in1009.5 mb 0.00 in0.0 mm 0.00 in0.0 mm 0.00 in0.0 mm
05:17 PM 56.2°F13.4°C 48.4°F9.1°C 55% 3.2 mph NW5.1 kmh NW 3.2 mph5.1 kmh 29.81 in1009.5 mb 0.00 in0.0 mm 0.00 in0.0 mm 0.00 in0.0 mm
05:20 PM 56.1°F13.4°C 48.6°F9.2°C 56% 8.5 mph NNW13.7 kmh NNW 8.5 mph13.7 kmh 29.81 in1009.5 mb 0.00 in0.0 mm 0.00 in0.0 mm 0.00 in0.0 mm
05:23 PM 55.7°F13.2°C 49.3°F9.6°C 57% 2.4 mph NW3.9 kmh NW 2.4 mph3.9 kmh 29.81 in1009.5 mb 0.00 in0.0 mm 0.00 in0.0 mm 0.00 in0.0 mm
05:26 PM 56.0°F13.3°C 49.0°F9.4°C 57% 6.9 mph W11.1 kmh W 6.9 mph11.1 kmh 29.81 in1009.5 mb 0.00 in0.0 mm 0.00 in0.0 mm 0.00 in0.0 mm
05:29 PM 55.7°F13.2°C 49.3°F9.6°C 58% 7.2 mph 11.6 kmh 7.2 mph11.6 kmh 29.81 in1009.5 mb 0.00 in0.0 mm 0.00 in0.0 mm 0.00 in0.0 mm
05:35 PM 56.4°F13.6°C 49.6°F9.8°C 59% 7.9 mph 12.7 kmh 7.9 mph12.7 kmh 29.82 in1009.8 mb 0.00 in0.0 mm 0.00 in0.0 mm 0.00 in0.0 mm
05:38 PM 56.3°F13.5°C 49.7°F9.8°C 60% 3.6 mph W5.8 kmh W 3.7 mph6.0 kmh 29.83 in1010.2 mb 0.00 in0.0 mm 0.00 in0.0 mm 0.00 in0.0 mm
05:41 PM 55.7°F13.2°C 49.6°F9.8°C 59% 7.7 mph NNW12.4 kmh NNW 7.8 mph12.6 kmh 29.83 in1010.2 mb 0.00 in0.0 mm 0.00 in0.0 mm 0.00 in0.0 mm
05:44 PM 55.5°F13.1°C 49.6°F9.8°C 60% 3.6 mph W5.8 kmh W 3.6 mph5.8 kmh 29.83 in1010.2 mb 0.00 in0.0 mm 0.00 in0.0 mm 0.00 in0.0 mm
05:47 PM 55.5°F13.1°C 49.6°F9.8°C 60% 6.8 mph NW10.9 kmh NW 6.8 mph10.9 kmh 29.83 in1010.2 mb 0.00 in0.0 mm 0.00 in0.0 mm 0.00 in0.0 mm
05:50 PM 55.1°F12.8°C 49.5°F9.7°C 60% 8.5 mph NW13.7 kmh NW 8.6 mph13.8 kmh 29.83 in1010.2 mb 0.00 in0.0 mm 0.00 in0.0 mm 0.00 in0.0 mm
05:53 PM 54.8°F12.7°C 49.4°F9.7°C 60% 4.8 mph NW7.7 kmh NW 4.9 mph7.9 kmh 29.84 in1010.5 mb 0.00 in0.0 mm 0.00 in0.0 mm 0.00 in0.0 mm
05:56 PM 54.4°F12.4°C 49.5°F9.7°C 60% 6.1 mph 9.8 kmh 6.1 mph9.8 kmh 29.84 in1010.5 mb 0.00 in0.0 mm 0.00 in0.0 mm 0.00 in0.0 mm
05:59 PM 54.1°F12.3°C 48.8°F9.3°C 59% 5.5 mph NNW8.9 kmh NNW 5.6 mph9.0 kmh 29.84 in1010.5 mb 0.00 in0.0 mm 0.00 in0.0 mm 0.00 in0.0 mm
06:02 PM 53.7°F12.1°C 48.8°F9.3°C 60% 2.7 mph NW4.3 kmh NW 2.7 mph4.3 kmh 29.84 in1010.5 mb 0.00 in0.0 mm 0.00 in0.0 mm 0.00 in0.0 mm
06:05 PM 53.6°F12.0°C 48.8°F9.3°C 60% 3.2 mph SSW5.1 kmh SSW 3.2 mph5.1 kmh 29.84 in1010.5 mb 0.00 in0.0 mm 0.00 in0.0 mm 0.00 in0.0 mm
06:08 PM 53.6°F12.0°C 48.7°F9.3°C 61% 2.4 mph NNW3.9 kmh NNW 2.4 mph3.9 kmh 29.84 in1010.5 mb 0.00 in0.0 mm 0.00 in0.0 mm 0.00 in0.0 mm
06:11 PM 53.3°F11.8°C 48.8°F9.3°C 61% 6.1 mph WNW9.8 kmh WNW 6.1 mph9.8 kmh 29.84 in1010.5 mb 0.00 in0.0 mm 0.00 in0.0 mm 0.00 in0.0 mm
06:14 PM 53.0°F11.7°C 48.9°F9.4°C 62% 6.8 mph NW10.9 kmh NW 6.9 mph11.1 kmh 29.84 in1010.5 mb 0.00 in0.0 mm 0.00 in0.0 mm 0.00 in0.0 mm
06:17 PM 52.9°F11.6°C 48.9°F9.4°C 62% 4.6 mph NNW7.4 kmh NNW 4.7 mph7.6 kmh 29.84 in1010.5 mb 0.00 in0.0 mm 0.00 in0.0 mm 0.00 in0.0 mm
06:20 PM 52.7°F11.5°C 49.1°F9.5°C 63% 3.6 mph NNW5.8 kmh NNW 3.7 mph6.0 kmh 29.84 in1010.5 mb 0.00 in0.0 mm 0.00 in0.0 mm 0.00 in0.0 mm
06:23 PM 52.7°F11.5°C 49.3°F9.6°C 63% 3.6 mph NNW5.8 kmh NNW 3.7 mph6.0 kmh 29.84 in1010.5 mb 0.00 in0.0 mm 0.00 in0.0 mm 0.00 in0.0 mm
06:26 PM 52.5°F11.4°C 48.8°F9.3°C 63% 2.4 mph WSW3.9 kmh WSW 2.4 mph3.9 kmh 29.84 in1010.5 mb 0.00 in0.0 mm 0.00 in0.0 mm 0.00 in0.0 mm
06:29 PM 52.5°F11.4°C 49.0°F9.4°C 63% 3.2 mph NW5.1 kmh NW 3.3 mph5.3 kmh 29.84 in1010.5 mb 0.00 in0.0 mm 0.00 in0.0 mm 0.00 in0.0 mm
06:32 PM 52.3°F11.3°C 48.9°F9.4°C 64% 2.3 mph W3.7 kmh W 2.3 mph3.7 kmh 29.84 in1010.5 mb 0.00 in0.0 mm 0.00 in0.0 mm 0.00 in0.0 mm
06:35 PM 52.0°F11.1°C 49.0°F9.4°C 64% 6.8 mph WNW10.9 kmh WNW 6.8 mph10.9 kmh 29.84 in1010.5 mb 0.00 in0.0 mm 0.00 in0.0 mm 0.00 in0.0 mm
06:38 PM 51.5°F10.8°C 49.0°F9.4°C 65% 3.2 mph NNW5.1 kmh NNW 3.2 mph5.1 kmh 29.84 in1010.5 mb 0.00 in0.0 mm 0.00 in0.0 mm 0.00 in0.0 mm
06:41 PM 51.2°F10.7°C 49.0°F9.4°C 64% 3.2 mph WNW5.1 kmh WNW 3.2 mph5.1 kmh 29.85 in1010.8 mb 0.00 in0.0 mm 0.00 in0.0 mm 0.00 in0.0 mm
06:44 PM 51.2°F10.7°C 49.0°F9.4°C 65% 5.2 mph NW8.4 kmh NW 5.2 mph8.4 kmh 29.85 in1010.8 mb 0.00 in0.0 mm 0.00 in0.0 mm 0.00 in0.0 mm
06:47 PM 50.9°F10.5°C 48.8°F9.3°C 65% 4.6 mph NW7.4 kmh NW 4.6 mph7.4 kmh 29.85 in1010.8 mb 0.00 in0.0 mm 0.00 in0.0 mm 0.00 in0.0 mm
06:50 PM 50.7°F10.4°C 49.0°F9.4°C 66% 4.4 mph NW7.1 kmh NW 4.4 mph7.1 kmh 29.84 in1010.5 mb 0.00 in0.0 mm 0.00 in0.0 mm 0.00 in0.0 mm
06:53 PM 50.3°F10.2°C 49.3°F9.6°C 67% 2.8 mph NW4.5 kmh NW 2.8 mph4.5 kmh 29.85 in1010.8 mb 0.00 in0.0 mm 0.00 in0.0 mm 0.00 in0.0 mm
06:56 PM 50.5°F10.3°C 48.8°F9.3°C 67% 4.4 mph WNW7.1 kmh WNW 4.5 mph7.2 kmh 29.86 in1011.2 mb 0.00 in0.0 mm 0.00 in0.0 mm 0.00 in0.0 mm
06:59 PM 50.0°F10.0°C 49.1°F9.5°C 67% 3.6 mph NW5.8 kmh NW 3.6 mph5.8 kmh 29.86 in1011.2 mb 0.00 in0.0 mm 0.00 in0.0 mm 0.00 in0.0 mm
07:02 PM 50.3°F10.2°C 48.7°F9.3°C 67% 3.9 mph NNW6.3 kmh NNW 3.9 mph6.3 kmh 29.85 in1010.8 mb 0.00 in0.0 mm 0.00 in0.0 mm 0.00 in0.0 mm
07:05 PM 50.0°F10.0°C 48.9°F9.4°C 67% 3.2 mph NW5.1 kmh NW 3.2 mph5.1 kmh 29.86 in1011.2 mb 0.00 in0.0 mm 0.00 in0.0 mm 0.00 in0.0 mm
07:08 PM 50.0°F10.0°C 49.0°F9.4°C 68% 6.4 mph NNW10.3 kmh NNW 6.4 mph10.3 kmh 29.86 in1011.2 mb 0.00 in0.0 mm 0.00 in0.0 mm 0.00 in0.0 mm
07:11 PM 49.6°F9.8°C 48.9°F9.4°C 68% 1.2 mph NNW1.9 kmh NNW 1.2 mph1.9 kmh 29.85 in1010.8 mb 0.00 in0.0 mm 0.00 in0.0 mm 0.00 in0.0 mm
07:14 PM 49.8°F9.9°C 49.1°F9.5°C 68% 1.6 mph WNW2.6 kmh WNW 1.6 mph2.6 kmh 29.86 in1011.2 mb 0.00 in0.0 mm 0.00 in0.0 mm 0.00 in0.0 mm
07:17 PM 49.7°F9.8°C 49.1°F9.5°C 68% 4.8 mph NW7.7 kmh NW 4.9 mph7.9 kmh 29.86 in1011.2 mb 0.00 in0.0 mm 0.00 in0.0 mm 0.00 in0.0 mm
07:20 PM 49.8°F9.9°C 48.7°F9.3°C 68% 2.4 mph NNW3.9 kmh NNW 2.4 mph3.9 kmh 29.86 in1011.2 mb 0.00 in0.0 mm 0.00 in0.0 mm 0.00 in0.0 mm
07:23 PM 49.6°F9.8°C 48.8°F9.3°C 69% 3.2 mph NNW5.1 kmh NNW 3.3 mph5.3 kmh 29.86 in1011.2 mb 0.00 in0.0 mm 0.00 in0.0 mm 0.00 in0.0 mm
07:26 PM 49.6°F9.8°C 48.6°F9.2°C 69% 3.2 mph NW5.1 kmh NW 3.3 mph5.3 kmh 29.86 in1011.2 mb 0.00 in0.0 mm 0.00 in0.0 mm 0.00 in0.0 mm
07:29 PM 49.3°F9.6°C 48.8°F9.3°C 70% 4.4 mph NNW7.1 kmh NNW 4.4 mph7.1 kmh 29.86 in1011.2 mb 0.00 in0.0 mm 0.00 in0.0 mm 0.00 in0.0 mm
07:32 PM 49.1°F9.5°C 48.6°F9.2°C 70% 0.4 mph NW0.6 kmh NW 0.4 mph0.6 kmh 29.86 in1011.2 mb 0.00 in0.0 mm 0.00 in0.0 mm 0.00 in0.0 mm
07:35 PM 49.1°F9.5°C 48.7°F9.3°C 70% 2.0 mph NNW3.2 kmh NNW 2.0 mph3.2 kmh 29.85 in1010.8 mb 0.00 in0.0 mm 0.00 in0.0 mm 0.00 in0.0 mm
07:38 PM 49.1°F9.5°C 48.8°F9.3°C 70% 3.2 mph NW5.1 kmh NW 3.3 mph5.3 kmh 29.86 in1011.2 mb 0.00 in0.0 mm 0.00 in0.0 mm 0.00 in0.0 mm
07:41 PM 48.9°F9.4°C 48.9°F9.4°C 70% 4.0 mph NNW6.4 kmh NNW 4.1 mph6.6 kmh 29.86 in1011.2 mb 0.00 in0.0 mm 0.00 in0.0 mm 0.00 in0.0 mm
07:44 PM 48.9°F9.4°C 49.0°F9.4°C 71% 2.8 mph WNW4.5 kmh WNW 2.8 mph4.5 kmh 29.86 in1011.2 mb 0.00 in0.0 mm 0.00 in0.0 mm 0.00 in0.0 mm
07:47 PM 48.7°F9.3°C 49.1°F9.5°C 71% 1.2 mph NW1.9 kmh NW 1.2 mph1.9 kmh 29.86 in1011.2 mb 0.00 in0.0 mm 0.00 in0.0 mm 0.00 in0.0 mm
07:50 PM 48.8°F9.3°C 49.0°F9.4°C 71% 1.6 mph NW2.6 kmh NW 1.6 mph2.6 kmh 29.86 in1011.2 mb 0.00 in0.0 mm 0.00 in0.0 mm 0.00 in0.0 mm
07:53 PM 48.4°F9.1°C 49.0°F9.4°C 72% 1.6 mph NNW2.6 kmh NNW 1.6 mph2.6 kmh 29.85 in1010.8 mb 0.00 in0.0 mm 0.00 in0.0 mm 0.00 in0.0 mm
07:56 PM 48.5°F9.2°C 49.1°F9.5°C 72% 2.4 mph NNW3.9 kmh NNW 2.4 mph3.9 kmh 29.86 in1011.2 mb 0.00 in0.0 mm 0.00 in0.0 mm 0.00 in0.0 mm
07:59 PM 48.5°F9.2°C 48.8°F9.3°C 72% 1.6 mph WNW2.6 kmh WNW 1.6 mph2.6 kmh 29.86 in1011.2 mb 0.00 in0.0 mm 0.00 in0.0 mm 0.00 in0.0 mm
08:02 PM 48.3°F9.1°C 48.9°F9.4°C 73% 2.8 mph NW4.5 kmh NW 2.9 mph4.7 kmh 29.86 in1011.2 mb 0.00 in0.0 mm 0.00 in0.0 mm 0.00 in0.0 mm
08:05 PM 48.3°F9.1°C 48.8°F9.3°C 72% 2.8 mph NW4.5 kmh NW 2.9 mph4.7 kmh 29.86 in1011.2 mb 0.00 in0.0 mm 0.00 in0.0 mm 0.00 in0.0 mm
08:11 PM 48.3°F9.1°C 48.9°F9.4°C 73% 2.0 mph NW3.2 kmh NW 2.0 mph3.2 kmh 29.86 in1011.2 mb 0.00 in0.0 mm 0.00 in0.0 mm 0.00 in0.0 mm
08:14 PM 48.2°F9.0°C 48.9°F9.4°C 73% 2.0 mph NNW3.2 kmh NNW 2.0 mph3.2 kmh 29.86 in1011.2 mb 0.00 in0.0 mm 0.00 in0.0 mm 0.00 in0.0 mm
08:17 PM 48.2°F9.0°C 48.6°F9.2°C 73% 2.0 mph W3.2 kmh W 2.0 mph3.2 kmh 29.86 in1011.2 mb 0.00 in0.0 mm 0.00 in0.0 mm 0.00 in0.0 mm
08:20 PM 48.1°F8.9°C 48.6°F9.2°C 73% 2.8 mph NNW4.5 kmh NNW 2.9 mph4.7 kmh 29.86 in1011.2 mb 0.00 in0.0 mm 0.00 in0.0 mm 0.00 in0.0 mm
08:23 PM 48.0°F8.9°C 48.8°F9.3°C 73% 0.8 mph WNW1.3 kmh WNW 0.8 mph1.3 kmh 29.86 in1011.2 mb 0.00 in0.0 mm 0.00 in0.0 mm 0.00 in0.0 mm
08:26 PM 48.0°F8.9°C 48.8°F9.3°C 74% 1.2 mph NNW1.9 kmh NNW 1.2 mph1.9 kmh 29.86 in1011.2 mb 0.00 in0.0 mm 0.00 in0.0 mm 0.00 in0.0 mm
08:29 PM 47.9°F8.8°C 48.6°F9.2°C 73% 0.8 mph W1.3 kmh W 0.8 mph1.3 kmh 29.86 in1011.2 mb 0.00 in0.0 mm 0.00 in0.0 mm 0.00 in0.0 mm
08:32 PM 47.8°F8.8°C 48.8°F9.3°C 74% 3.2 mph WSW5.1 kmh WSW 3.2 mph5.1 kmh 29.86 in1011.2 mb 0.00 in0.0 mm 0.00 in0.0 mm 0.00 in0.0 mm
08:35 PM 47.6°F8.7°C 48.6°F9.2°C 73% 2.0 mph WSW3.2 kmh WSW 2.0 mph3.2 kmh 29.86 in1011.2 mb 0.00 in0.0 mm 0.00 in0.0 mm 0.00 in0.0 mm
08:38 PM 47.6°F8.7°C 48.6°F9.2°C 74% 1.2 mph W1.9 kmh W 1.2 mph1.9 kmh 29.86 in1011.2 mb 0.00 in0.0 mm 0.00 in0.0 mm 0.00 in0.0 mm
08:41 PM 47.6°F8.7°C 48.8°F9.3°C 74% 1.6 mph W2.6 kmh W 1.6 mph2.6 kmh 29.86 in1011.2 mb 0.00 in0.0 mm 0.00 in0.0 mm 0.00 in0.0 mm
08:44 PM 47.8°F8.8°C 48.5°F9.2°C 74% 2.0 mph NNW3.2 kmh NNW 2.0 mph3.2 kmh 29.86 in1011.2 mb 0.00 in0.0 mm 0.00 in0.0 mm 0.00 in0.0 mm
08:47 PM 47.8°F8.8°C 48.6°F9.2°C 74% 1.6 mph WSW2.6 kmh WSW 1.6 mph2.6 kmh 29.86 in1011.2 mb 0.00 in0.0 mm 0.00 in0.0 mm 0.00 in0.0 mm
08:50 PM 47.8°F8.8°C 48.5°F9.2°C 74% 0.4 mph NW0.6 kmh NW 0.4 mph0.6 kmh 29.86 in1011.2 mb 0.00 in0.0 mm 0.00 in0.0 mm 0.00 in0.0 mm
08:53 PM 47.8°F8.8°C 48.5°F9.2°C 74% 3.6 mph NNW5.8 kmh NNW 3.6 mph5.8 kmh 29.86 in1011.2 mb 0.00 in0.0 mm 0.00 in0.0 mm 0.00 in0.0 mm
08:56 PM 47.8°F8.8°C 48.4°F9.1°C 74% 2.0 mph NNW3.2 kmh NNW 2.0 mph3.2 kmh 29.86 in1011.2 mb 0.00 in0.0 mm 0.00 in0.0 mm 0.00 in0.0 mm
08:59 PM 47.8°F8.8°C 48.5°F9.2°C 74% 0.8 mph SW1.3 kmh SW 0.8 mph1.3 kmh 29.86 in1011.2 mb 0.00 in0.0 mm 0.00 in0.0 mm 0.00 in0.0 mm
09:02 PM 47.6°F8.7°C 48.6°F9.2°C 75% Calm Calm -- 29.86 in1011.2 mb 0.00 in0.0 mm 0.00 in0.0 mm 0.00 in0.0 mm
09:05 PM 47.6°F8.7°C 48.4°F9.1°C 74% 0.4 mph W0.6 kmh W 0.4 mph0.6 kmh 29.86 in1011.2 mb 0.00 in0.0 mm 0.00 in0.0 mm 0.00 in0.0 mm
09:08 PM 47.6°F8.7°C 48.7°F9.3°C 75% 0.4 mph WSW0.6 kmh WSW 0.4 mph0.6 kmh 29.86 in1011.2 mb 0.00 in0.0 mm 0.00 in0.0 mm 0.00 in0.0 mm
09:11 PM 47.5°F8.6°C 48.4°F9.1°C 75% Calm Calm -- 29.86 in1011.2 mb 0.00 in0.0 mm 0.00 in0.0 mm 0.00 in0.0 mm
09:14 PM 47.5°F8.6°C 48.6°F9.2°C 75% Calm Calm -- 29.86 in1011.2 mb 0.00 in0.0 mm 0.00 in0.0 mm 0.00 in0.0 mm
09:17 PM 47.4°F8.6°C 48.7°F9.3°C 75% 1.6 mph SW2.6 kmh SW 1.6 mph2.6 kmh 29.86 in1011.2 mb 0.00 in0.0 mm 0.00 in0.0 mm 0.00 in0.0 mm
09:20 PM 47.3°F8.5°C 48.7°F9.3°C 75% 1.2 mph SW1.9 kmh SW 1.2 mph1.9 kmh 29.86 in1011.2 mb 0.00 in0.0 mm 0.00 in0.0 mm 0.00 in0.0 mm
09:23 PM 47.3°F8.5°C 48.4°F9.1°C 75% 1.2 mph SW1.9 kmh SW 1.2 mph1.9 kmh 29.86 in1011.2 mb 0.00 in0.0 mm 0.00 in0.0 mm 0.00 in0.0 mm
09:26 PM 47.2°F8.4°C 48.5°F9.2°C 76% 2.4 mph NNW3.9 kmh NNW 2.4 mph3.9 kmh 29.86 in1011.2 mb 0.00 in0.0 mm 0.00 in0.0 mm 0.00 in0.0 mm
09:29 PM 47.1°F8.4°C 48.4°F9.1°C 76% 1.6 mph NNW2.6 kmh NNW 1.6 mph2.6 kmh 29.86 in1011.2 mb 0.00 in0.0 mm 0.00 in0.0 mm 0.00 in0.0 mm
09:32 PM 47.1°F8.4°C 48.1°F8.9°C 75% Calm Calm -- 29.86 in1011.2 mb 0.00 in0.0 mm 0.00 in0.0 mm 0.00 in0.0 mm
09:35 PM 47.1°F8.4°C 48.3°F9.1°C 76% 0.4 mph NNW0.6 kmh NNW 0.4 mph0.6 kmh 29.86 in1011.2 mb 0.00 in0.0 mm 0.00 in0.0 mm 0.00 in0.0 mm
09:38 PM 46.9°F8.3°C 48.5°F9.2°C 76% Calm Calm -- 29.85 in1010.8 mb 0.00 in0.0 mm 0.00 in0.0 mm 0.00 in0.0 mm
09:41 PM 46.7°F8.2°C 48.5°F9.2°C 76% 1.2 mph SW1.9 kmh SW 1.2 mph1.9 kmh 29.85 in1010.8 mb 0.00 in0.0 mm 0.00 in0.0 mm 0.00 in0.0 mm
09:44 PM 46.7°F8.2°C 48.4°F9.1°C 76% 0.4 mph NNW0.6 kmh NNW 0.4 mph0.6 kmh 29.86 in1011.2 mb 0.00 in0.0 mm 0.00 in0.0 mm 0.00 in0.0 mm
09:50 PM 46.5°F8.1°C 48.8°F9.3°C 78% Calm Calm -- 29.86 in1011.2 mb 0.00 in0.0 mm 0.00 in0.0 mm 0.00 in0.0 mm
09:53 PM 46.5°F8.1°C 48.9°F9.4°C 78% Calm Calm -- 29.86 in1011.2 mb 0.00 in0.0 mm 0.00 in0.0 mm 0.00 in0.0 mm
09:56 PM 46.4°F8.0°C 48.5°F9.2°C 79% Calm Calm -- 29.86 in1011.2 mb 0.00 in0.0 mm 0.00 in0.0 mm 0.00 in0.0 mm
10:02 PM 46.2°F7.9°C 49.0°F9.4°C 81% Calm Calm -- 29.86 in1011.2 mb 0.00 in0.0 mm 0.00 in0.0 mm 0.00 in0.0 mm
10:05 PM 46.3°F7.9°C 48.7°F9.3°C 80% Calm Calm -- 29.86 in1011.2 mb 0.00 in0.0 mm 0.00 in0.0 mm 0.00 in0.0 mm
10:08 PM 46.2°F7.9°C 48.9°F9.4°C 80% Calm Calm -- 29.86 in1011.2 mb 0.00 in0.0 mm 0.00 in0.0 mm 0.00 in0.0 mm
10:11 PM 46.1°F7.8°C 48.6°F9.2°C 81% 0.4 mph ESE0.6 kmh ESE 0.4 mph0.6 kmh 29.85 in1010.8 mb 0.00 in0.0 mm 0.00 in0.0 mm 0.00 in0.0 mm
10:14 PM 46.1°F7.8°C 48.7°F9.3°C 81% Calm Calm -- 29.85 in1010.8 mb 0.00 in0.0 mm 0.00 in0.0 mm 0.00 in0.0 mm
10:17 PM 46.1°F7.8°C 48.7°F9.3°C 81% 0.4 mph SE0.6 kmh SE 0.4 mph0.6 kmh 29.85 in1010.8 mb 0.00 in0.0 mm 0.00 in0.0 mm 0.00 in0.0 mm
10:20 PM 46.0°F7.8°C 48.8°F9.3°C 81% 0.8 mph ESE1.3 kmh ESE 0.8 mph1.3 kmh 29.85 in1010.8 mb 0.00 in0.0 mm 0.00 in0.0 mm 0.00 in0.0 mm
10:23 PM 46.1°F7.8°C 48.8°F9.3°C 81% 1.2 mph SE1.9 kmh SE 1.2 mph1.9 kmh 29.85 in1010.8 mb 0.00 in0.0 mm 0.00 in0.0 mm 0.00 in0.0 mm
10:26 PM 46.0°F7.8°C 48.9°F9.4°C 82% 1.6 mph SE2.6 kmh SE 1.6 mph2.6 kmh 29.85 in1010.8 mb 0.00 in0.0 mm 0.00 in0.0 mm 0.00 in0.0 mm
10:29 PM 46.0°F7.8°C 48.9°F9.4°C 82% 1.6 mph SE2.6 kmh SE 1.6 mph2.6 kmh 29.85 in1010.8 mb 0.00 in0.0 mm 0.00 in0.0 mm 0.00 in0.0 mm
10:32 PM 46.0°F7.8°C 49.0°F9.4°C 83% Calm Calm -- 29.85 in1010.8 mb 0.00 in0.0 mm 0.00 in0.0 mm 0.00 in0.0 mm
10:35 PM 45.8°F7.7°C 48.8°F9.3°C 83% 1.2 mph SE1.9 kmh SE 1.2 mph1.9 kmh 29.85 in1010.8 mb 0.00 in0.0 mm 0.00 in0.0 mm 0.00 in0.0 mm
10:38 PM 45.8°F7.7°C 48.9°F9.4°C 83% Calm Calm -- 29.85 in1010.8 mb 0.00 in0.0 mm 0.00 in0.0 mm 0.00 in0.0 mm
10:41 PM 46.0°F7.8°C 49.1°F9.5°C 83% Calm Calm -- 29.84 in1010.5 mb 0.00 in0.0 mm 0.00 in0.0 mm 0.00 in0.0 mm
10:44 PM 45.8°F7.7°C 49.0°F9.4°C 83% Calm Calm -- 29.84 in1010.5 mb 0.00 in0.0 mm 0.00 in0.0 mm 0.00 in0.0 mm
10:47 PM 45.8°F7.7°C 48.8°F9.3°C 83% Calm Calm -- 29.84 in1010.5 mb 0.00 in0.0 mm 0.00 in0.0 mm 0.00 in0.0 mm
10:50 PM 45.8°F7.7°C 48.6°F9.2°C 82% Calm Calm -- 29.84 in1010.5 mb 0.00 in0.0 mm 0.00 in0.0 mm 0.00 in0.0 mm
10:53 PM 45.8°F7.7°C 48.8°F9.3°C 83% Calm Calm -- 29.84 in1010.5 mb 0.00 in0.0 mm 0.00 in0.0 mm 0.00 in0.0 mm
10:56 PM 45.7°F7.6°C 49.0°F9.4°C 83% Calm Calm -- 29.85 in1010.8 mb 0.00 in0.0 mm 0.00 in0.0 mm 0.00 in0.0 mm
10:59 PM 45.8°F7.7°C 48.7°F9.3°C 83% Calm Calm -- 29.84 in1010.5 mb 0.00 in0.0 mm 0.00 in0.0 mm 0.00 in0.0 mm
11:02 PM 45.8°F7.7°C 48.7°F9.3°C 83% Calm Calm -- 29.84 in1010.5 mb 0.00 in0.0 mm 0.00 in0.0 mm 0.00 in0.0 mm
11:05 PM 45.7°F7.6°C 48.9°F9.4°C 83% Calm Calm -- 29.84 in1010.5 mb 0.00 in0.0 mm 0.00 in0.0 mm 0.00 in0.0 mm
11:08 PM 45.7°F7.6°C 48.7°F9.3°C 83% 0.4 mph S0.6 kmh S 0.4 mph0.6 kmh 29.84 in1010.5 mb 0.00 in0.0 mm 0.00 in0.0 mm 0.00 in0.0 mm
11:11 PM 45.7°F7.6°C 48.6°F9.2°C 83% Calm Calm -- 29.84 in1010.5 mb 0.00 in0.0 mm 0.00 in0.0 mm 0.00 in0.0 mm
11:14 PM 45.7°F7.6°C 49.1°F9.5°C 83% Calm Calm -- 29.84 in1010.5 mb 0.00 in0.0 mm 0.00 in0.0 mm 0.00 in0.0 mm
11:17 PM 45.7°F7.6°C 48.9°F9.4°C 83% Calm Calm -- 29.84 in1010.5 mb 0.00 in0.0 mm 0.00 in0.0 mm 0.00 in0.0 mm
11:20 PM 45.7°F7.6°C 48.9°F9.4°C 83% Calm Calm -- 29.84 in1010.5 mb 0.00 in0.0 mm 0.00 in0.0 mm 0.00 in0.0 mm
11:26 PM 45.6°F7.6°C 48.6°F9.2°C 83% Calm Calm -- 29.84 in1010.5 mb 0.00 in0.0 mm 0.00 in0.0 mm 0.00 in0.0 mm
11:29 PM 45.6°F7.6°C 48.7°F9.3°C 83% Calm Calm -- 29.84 in1010.5 mb 0.00 in0.0 mm 0.00 in0.0 mm 0.00 in0.0 mm
11:32 PM 45.5°F7.5°C 48.5°F9.2°C 83% Calm Calm -- 29.84 in1010.5 mb 0.00 in0.0 mm 0.00 in0.0 mm 0.00 in0.0 mm
11:35 PM 45.5°F7.5°C 48.9°F9.4°C 83% Calm Calm -- 29.84 in1010.5 mb 0.00 in0.0 mm 0.00 in0.0 mm 0.00 in0.0 mm
11:38 PM 45.5°F7.5°C 48.6°F9.2°C 83% Calm Calm -- 29.84 in1010.5 mb 0.00 in0.0 mm 0.00 in0.0 mm 0.00 in0.0 mm
11:41 PM 45.4°F7.4°C 48.7°F9.3°C 83% Calm Calm -- 29.84 in1010.5 mb 0.00 in0.0 mm 0.00 in0.0 mm 0.00 in0.0 mm
11:44 PM 45.4°F7.4°C 48.6°F9.2°C 83% Calm Calm -- 29.84 in1010.5 mb 0.00 in0.0 mm 0.00 in0.0 mm 0.00 in0.0 mm
11:47 PM 45.4°F7.4°C 48.4°F9.1°C 83% Calm Calm -- 29.84 in1010.5 mb 0.00 in0.0 mm 0.00 in0.0 mm 0.00 in0.0 mm
11:50 PM 45.4°F7.4°C 48.7°F9.3°C 83% Calm Calm -- 29.84 in1010.5 mb 0.00 in0.0 mm 0.00 in0.0 mm 0.00 in0.0 mm
11:53 PM 45.4°F7.4°C 48.4°F9.1°C 83% Calm Calm -- 29.84 in1010.5 mb 0.00 in0.0 mm 0.00 in0.0 mm 0.00 in0.0 mm
11:56 PM 45.4°F7.4°C 48.4°F9.1°C 82% Calm Calm -- 29.84 in1010.5 mb 0.00 in0.0 mm 0.00 in0.0 mm 0.00 in0.0 mm
11:59 PM 45.4°F7.4°C 48.4°F9.1°C 83% Calm Calm -- 29.84 in1010.5 mb 0.00 in0.0 mm 0.00 in0.0 mm 0.00 in0.0 mm